Time,TemperatureF,DewpointF,PressureIn,WindDirection,WindDirectionDegrees,WindSpeedMPH,WindSpeedGustMPH,Humidity,HourlyPrecipIn,Conditions,Clouds,dailyrainin,SolarRadiationWatts/m^2,SoftwareType,DateUTC
2013-01-13 00:02:00,23.9,21.7,30.47,NNW,330,0.0,-999.0,91,0.00,,,0.00,0,Wunderground v.1.15,2013-01-13 08:02:00,
2013-01-13 00:03:00,23.9,21.7,30.47,NNW,330,0.0,-999.0,91,0.00,,,0.00,0,Wunderground v.1.15,2013-01-13 08:03:00,
2013-01-13 00:05:00,23.9,21.7,30.47,NNW,330,0.0,-999.0,91,0.00,,,0.00,0,Wunderground v.1.15,2013-01-13 08:05:00,
2013-01-13 00:06:00,23.9,21.7,30.47,NNW,330,0.0,-999.0,91,0.00,,,0.00,0,Wunderground v.1.15,2013-01-13 08:06:00,
2013-01-13 00:09:00,23.9,21.7,30.47,NNW,330,0.0,-999.0,91,0.00,,,0.00,0,Wunderground v.1.15,2013-01-13 08:09:00,
2013-01-13 00:12:00,23.8,21.6,30.47,NNW,330,0.0,-999.0,91,0.00,,,0.00,0,Wunderground v.1.15,2013-01-13 08:12:00,
2013-01-13 00:13:00,23.8,21.6,30.47,NNW,330,0.0,-999.0,91,0.00,,,0.00,0,Wunderground v.1.15,2013-01-13 08:13:00,
2013-01-13 00:14:00,23.8,21.6,30.47,NNW,330,0.0,-999.0,91,0.00,,,0.00,0,Wunderground v.1.15,2013-01-13 08:14:00,
2013-01-13 00:18:00,23.8,21.6,30.46,NNW,330,0.0,-999.0,91,0.00,,,0.00,0,Wunderground v.1.15,2013-01-13 08:18:00,
2013-01-13 00:19:00,23.8,21.6,30.46,NNW,330,0.0,-999.0,91,0.00,,,0.00,0,Wunderground v.1.15,2013-01-13 08:19:00,
2013-01-13 00:22:00,23.8,21.6,30.46,NNW,330,0.0,-999.0,91,0.00,,,0.00,0,Wunderground v.1.15,2013-01-13 08:22:00,
2013-01-13 00:23:00,23.8,21.6,30.46,NNW,330,0.0,-999.0,91,0.00,,,0.00,0,Wunderground v.1.15,2013-01-13 08:23:00,
2013-01-13 00:24:00,23.8,21.6,30.46,NNW,330,0.0,-999.0,91,0.00,,,0.00,0,Wunderground v.1.15,2013-01-13 08:24:00,
2013-01-13 00:28:00,23.8,21.6,30.46,NNW,330,0.0,-999.0,91,0.00,,,0.00,0,Wunderground v.1.15,2013-01-13 08:28:00,
2013-01-13 00:29:00,23.8,21.6,30.46,NNW,330,0.0,-999.0,91,0.00,,,0.00,0,Wunderground v.1.15,2013-01-13 08:29:00,
2013-01-13 00:30:00,23.8,21.6,30.46,NNW,330,0.0,-999.0,91,0.00,,,0.00,0,Wunderground v.1.15,2013-01-13 08:30:00,
2013-01-13 00:31:00,23.6,21.4,30.47,NNW,330,0.0,-999.0,91,0.00,,,0.00,0,Wunderground v.1.15,2013-01-13 08:31:00,
2013-01-13 00:35:00,23.6,21.4,30.47,NNW,330,0.0,-999.0,91,0.00,,,0.00,0,Wunderground v.1.15,2013-01-13 08:35:00,
2013-01-13 00:37:00,23.6,21.4,30.47,NNW,330,0.0,-999.0,91,0.00,,,0.00,0,Wunderground v.1.15,2013-01-13 08:37:00,
2013-01-13 00:38:00,23.6,21.4,30.47,NNW,330,0.0,-999.0,91,0.00,,,0.00,0,Wunderground v.1.15,2013-01-13 08:38:00,
2013-01-13 00:42:00,23.5,21.3,30.47,NNW,330,0.0,-999.0,91,0.00,,,0.00,0,Wunderground v.1.15,2013-01-13 08:42:00,
2013-01-13 00:45:00,23.5,21.3,30.47,NNW,330,0.0,-999.0,91,0.00,,,0.00,0,Wunderground v.1.15,2013-01-13 08:45:00,
2013-01-13 00:47:00,23.5,21.3,30.47,NNW,330,0.0,-999.0,91,0.00,,,0.00,0,Wunderground v.1.15,2013-01-13 08:47:00,
2013-01-13 00:48:00,23.5,21.3,30.47,NNW,330,0.0,-999.0,91,0.00,,,0.00,0,Wunderground v.1.15,2013-01-13 08:48:00,
2013-01-13 00:51:00,23.5,21.3,30.47,NNW,330,0.0,-999.0,91,0.00,,,0.00,0,Wunderground v.1.15,2013-01-13 08:51:00,
2013-01-13 00:52:00,23.5,21.3,30.47,NNW,330,0.0,-999.0,91,0.00,,,0.00,0,Wunderground v.1.15,2013-01-13 08:52:00,
2013-01-13 00:53:00,23.5,21.3,30.47,NNW,330,0.0,-999.0,91,0.00,,,0.00,0,Wunderground v.1.15,2013-01-13 08:53:00,
2013-01-13 00:58:00,23.5,21.3,30.47,NNW,330,0.0,-999.0,91,0.00,,,0.00,0,Wunderground v.1.15,2013-01-13 08:58:00,
2013-01-13 01:00:00,23.6,21.4,30.47,NNW,330,0.0,-999.0,91,0.00,,,0.00,0,Wunderground v.1.15,2013-01-13 09:00:00,
2013-01-13 01:01:00,23.6,21.4,30.47,NNW,330,0.0,-999.0,91,0.00,,,0.00,0,Wunderground v.1.15,2013-01-13 09:01:00,
2013-01-13 01:05:00,23.6,21.4,30.47,NNW,330,0.0,-999.0,91,0.00,,,0.00,0,Wunderground v.1.15,2013-01-13 09:05:00,
2013-01-13 01:07:00,23.8,21.6,30.47,NNW,330,0.0,-999.0,91,0.00,,,0.00,0,Wunderground v.1.15,2013-01-13 09:07:00,
2013-01-13 01:09:00,23.8,21.6,30.47,NNW,330,0.0,-999.0,91,0.00,,,0.00,0,Wunderground v.1.15,2013-01-13 09:09:00,
2013-01-13 01:10:00,23.8,21.6,30.47,NNW,330,0.0,-999.0,91,0.00,,,0.00,0,Wunderground v.1.15,2013-01-13 09:10:00,
2013-01-13 01:11:00,23.8,21.6,30.47,NNW,330,0.0,-999.0,91,0.00,,,0.00,0,Wunderground v.1.15,2013-01-13 09:11:00,
2013-01-13 01:15:00,23.8,21.6,30.47,NNW,330,0.0,-999.0,91,0.00,,,0.00,0,Wunderground v.1.15,2013-01-13 09:15:00,
2013-01-13 01:16:00,23.8,21.6,30.47,NNW,330,0.0,-999.0,91,0.00,,,0.00,0,Wunderground v.1.15,2013-01-13 09:16:00,
2013-01-13 01:18:00,23.8,21.6,30.47,NNW,330,0.0,-999.0,91,0.00,,,0.00,0,Wunderground v.1.15,2013-01-13 09:18:00,
2013-01-13 01:20:00,23.8,21.6,30.47,NNW,330,0.0,-999.0,91,0.00,,,0.00,0,Wunderground v.1.15,2013-01-13 09:20:00,
2013-01-13 01:21:00,23.8,21.6,30.47,NNW,330,0.0,-999.0,91,0.00,,,0.00,0,Wunderground v.1.15,2013-01-13 09:21:00,
2013-01-13 01:22:00,23.8,21.6,30.47,NNW,330,0.0,-999.0,91,0.00,,,0.00,0,Wunderground v.1.15,2013-01-13 09:22:00,
2013-01-13 01:26:00,23.6,21.4,30.47,NNW,330,0.0,-999.0,91,0.00,,,0.00,0,Wunderground v.1.15,2013-01-13 09:26:00,
2013-01-13 01:28:00,23.6,21.4,30.47,NNW,330,0.0,-999.0,91,0.00,,,0.00,0,Wunderground v.1.15,2013-01-13 09:28:00,
2013-01-13 01:30:00,23.6,21.4,30.47,NNW,330,0.0,-999.0,91,0.00,,,0.00,0,Wunderground v.1.15,2013-01-13 09:30:00,
2013-01-13 01:34:00,23.5,21.3,30.47,NNW,330,0.0,-999.0,91,0.00,,,0.00,0,Wunderground v.1.15,2013-01-13 09:34:00,
2013-01-13 01:36:00,23.5,21.3,30.47,NNW,330,0.0,-999.0,91,0.00,,,0.00,0,Wunderground v.1.15,2013-01-13 09:36:00,
2013-01-13 01:39:00,23.5,21.3,30.47,NNW,330,0.0,-999.0,91,0.00,,,0.00,0,Wunderground v.1.15,2013-01-13 09:39:00,
2013-01-13 01:40:00,23.5,21.3,30.47,NNW,330,0.0,-999.0,91,0.00,,,0.00,0,Wunderground v.1.15,2013-01-13 09:40:00,
2013-01-13 01:41:00,23.5,21.3,30.47,NNW,330,0.0,-999.0,91,0.00,,,0.00,0,Wunderground v.1.15,2013-01-13 09:41:00,
2013-01-13 01:42:00,23.5,21.3,30.47,NNW,330,0.0,-999.0,91,0.00,,,0.00,0,Wunderground v.1.15,2013-01-13 09:42:00,
2013-01-13 01:44:00,23.5,21.3,30.47,NNW,330,0.0,-999.0,91,0.00,,,0.00,0,Wunderground v.1.15,2013-01-13 09:44:00,
2013-01-13 01:46:00,23.3,21.1,30.47,NNW,330,0.0,-999.0,91,0.00,,,0.00,0,Wunderground v.1.15,2013-01-13 09:46:00,
2013-01-13 01:47:00,23.3,21.1,30.47,NNW,330,0.0,-999.0,91,0.00,,,0.00,0,Wunderground v.1.15,2013-01-13 09:47:00,
2013-01-13 01:49:00,23.3,21.1,30.47,NNW,330,0.0,-999.0,91,0.00,,,0.00,0,Wunderground v.1.15,2013-01-13 09:49:00,
2013-01-13 01:53:00,23.3,21.1,30.47,NNW,330,0.0,-999.0,91,0.00,,,0.00,0,Wunderground v.1.15,2013-01-13 09:53:00,
2013-01-13 01:54:00,23.3,21.1,30.47,NNW,330,0.0,-999.0,91,0.00,,,0.00,0,Wunderground v.1.15,2013-01-13 09:54:00,
2013-01-13 01:58:00,23.3,21.1,30.47,NNW,330,0.0,-999.0,91,0.00,,,0.00,0,Wunderground v.1.15,2013-01-13 09:58:00,
2013-01-13 02:00:00,23.3,21.1,30.48,NNW,330,0.0,-999.0,91,0.00,,,0.00,0,Wunderground v.1.15,2013-01-13 10:00:00,
2013-01-13 02:03:00,23.5,21.3,30.48,NNW,330,0.0,-999.0,91,0.00,,,0.00,0,Wunderground v.1.15,2013-01-13 10:03:00,
2013-01-13 02:05:00,23.5,21.3,30.48,NNW,330,0.0,-999.0,91,0.00,,,0.00,0,Wunderground v.1.15,2013-01-13 10:05:00,
2013-01-13 02:06:00,23.5,21.3,30.48,NNW,330,0.0,-999.0,91,0.00,,,0.00,0,Wunderground v.1.15,2013-01-13 10:06:00,
2013-01-13 02:09:00,23.5,21.3,30.48,NNW,330,0.0,-999.0,91,0.00,,,0.00,0,Wunderground v.1.15,2013-01-13 10:09:00,
2013-01-13 02:10:00,23.5,21.3,30.48,NNW,330,0.0,-999.0,91,0.00,,,0.00,0,Wunderground v.1.15,2013-01-13 10:10:00,
2013-01-13 02:11:00,23.5,21.3,30.48,NNW,330,0.0,-999.0,91,0.00,,,0.00,0,Wunderground v.1.15,2013-01-13 10:11:00,
2013-01-13 02:14:00,23.5,21.3,30.48,NNW,330,0.0,-999.0,91,0.00,,,0.00,0,Wunderground v.1.15,2013-01-13 10:14:00,
2013-01-13 02:16:00,23.5,21.3,30.48,NNW,330,0.0,-999.0,91,0.00,,,0.00,0,Wunderground v.1.15,2013-01-13 10:16:00,
2013-01-13 02:17:00,23.5,21.3,30.48,NNW,330,0.0,-999.0,91,0.00,,,0.00,0,Wunderground v.1.15,2013-01-13 10:17:00,
2013-01-13 02:19:00,23.5,21.3,30.48,NNW,330,0.0,-999.0,91,0.00,,,0.00,0,Wunderground v.1.15,2013-01-13 10:19:00,
2013-01-13 02:21:00,23.3,21.1,30.48,NNW,330,0.0,-999.0,91,0.00,,,0.00,0,Wunderground v.1.15,2013-01-13 10:21:00,
2013-01-13 02:22:00,23.3,21.1,30.48,NNW,330,0.0,-999.0,91,0.00,,,0.00,0,Wunderground v.1.15,2013-01-13 10:22:00,
2013-01-13 02:24:00,23.3,21.1,30.48,NNW,330,0.0,-999.0,91,0.00,,,0.00,0,Wunderground v.1.15,2013-01-13 10:24:00,
2013-01-13 02:26:00,23.3,21.1,30.48,NNW,330,0.0,-999.0,91,0.00,,,0.00,0,Wunderground v.1.15,2013-01-13 10:26:00,
2013-01-13 02:27:00,23.3,21.1,30.48,NNW,330,0.0,-999.0,91,0.00,,,0.00,0,Wunderground v.1.15,2013-01-13 10:27:00,
2013-01-13 02:29:00,23.3,21.1,30.48,NNW,330,0.0,-999.0,91,0.00,,,0.00,0,Wunderground v.1.15,2013-01-13 10:29:00,
2013-01-13 02:31:00,23.3,21.1,30.48,NNW,330,0.0,-999.0,91,0.00,,,0.00,0,Wunderground v.1.15,2013-01-13 10:31:00,
2013-01-13 02:32:00,23.3,21.1,30.48,NNW,330,0.0,-999.0,91,0.00,,,0.00,0,Wunderground v.1.15,2013-01-13 10:32:00,
2013-01-13 02:34:00,23.3,21.1,30.48,NNW,330,0.0,-999.0,91,0.00,,,0.00,0,Wunderground v.1.15,2013-01-13 10:34:00,
2013-01-13 02:36:00,23.3,21.1,30.48,NNW,330,0.0,-999.0,91,0.00,,,0.00,0,Wunderground v.1.15,2013-01-13 10:36:00,
2013-01-13 02:37:00,23.3,21.1,30.48,NNW,330,0.0,-999.0,91,0.00,,,0.00,0,Wunderground v.1.15,2013-01-13 10:37:00,
2013-01-13 02:38:00,23.3,21.1,30.48,NNW,330,0.0,-999.0,91,0.00,,,0.00,0,Wunderground v.1.15,2013-01-13 10:38:00,
2013-01-13 02:39:00,23.3,21.1,30.48,NNW,330,0.0,-999.0,91,0.00,,,0.00,0,Wunderground v.1.15,2013-01-13 10:39:00,
2013-01-13 02:41:00,23.3,21.1,30.48,NNW,330,0.0,-999.0,91,0.00,,,0.00,0,Wunderground v.1.15,2013-01-13 10:41:00,
2013-01-13 02:42:00,23.3,21.1,30.48,NNW,330,0.0,-999.0,91,0.00,,,0.00,0,Wunderground v.1.15,2013-01-13 10:42:00,
2013-01-13 02:43:00,23.3,21.1,30.48,NNW,330,0.0,-999.0,91,0.00,,,0.00,0,Wunderground v.1.15,2013-01-13 10:43:00,
2013-01-13 02:45:00,23.3,21.1,30.48,NNW,330,0.0,-999.0,91,0.00,,,0.00,0,Wunderground v.1.15,2013-01-13 10:45:00,
2013-01-13 02:46:00,23.3,21.1,30.48,NNW,330,0.0,-999.0,91,0.00,,,0.00,0,Wunderground v.1.15,2013-01-13 10:46:00,
2013-01-13 02:48:00,23.3,21.1,30.48,NNW,330,0.0,-999.0,91,0.00,,,0.00,0,Wunderground v.1.15,2013-01-13 10:48:00,
2013-01-13 02:49:00,23.3,21.1,30.48,NNW,330,0.0,-999.0,91,0.00,,,0.00,0,Wunderground v.1.15,2013-01-13 10:49:00,
2013-01-13 02:51:00,23.3,21.1,30.48,NNW,330,0.0,-999.0,91,0.00,,,0.00,0,Wunderground v.1.15,2013-01-13 10:51:00,
2013-01-13 02:53:00,23.1,20.9,30.48,NNW,330,0.0,-999.0,91,0.00,,,0.00,0,Wunderground v.1.15,2013-01-13 10:53:00,
2013-01-13 02:54:00,23.1,20.9,30.48,NNW,330,0.0,-999.0,91,0.00,,,0.00,0,Wunderground v.1.15,2013-01-13 10:54:00,
2013-01-13 02:56:00,23.1,20.9,30.48,NNW,330,0.0,-999.0,91,0.00,,,0.00,0,Wunderground v.1.15,2013-01-13 10:56:00,
2013-01-13 02:57:00,23.1,20.9,30.48,NNW,330,0.0,-999.0,91,0.00,,,0.00,0,Wunderground v.1.15,2013-01-13 10:57:00,
2013-01-13 02:58:00,23.1,20.9,30.48,NNW,330,0.0,-999.0,91,0.00,,,0.00,0,Wunderground v.1.15,2013-01-13 10:58:00,
2013-01-13 02:59:00,23.1,20.9,30.48,NNW,330,0.0,-999.0,91,0.00,,,0.00,0,Wunderground v.1.15,2013-01-13 10:59:00,
2013-01-13 03:01:00,23.1,20.9,30.48,NNW,330,0.0,-999.0,91,0.00,,,0.00,0,Wunderground v.1.15,2013-01-13 11:01:00,
2013-01-13 03:02:00,23.1,20.9,30.48,NNW,330,0.0,-999.0,91,0.00,,,0.00,0,Wunderground v.1.15,2013-01-13 11:02:00,
2013-01-13 03:03:00,23.1,20.9,30.48,NNW,330,0.0,-999.0,91,0.00,,,0.00,0,Wunderground v.1.15,2013-01-13 11:03:00,
2013-01-13 03:04:00,23.1,20.9,30.48,NNW,330,0.0,-999.0,91,0.00,,,0.00,0,Wunderground v.1.15,2013-01-13 11:04:00,
2013-01-13 03:07:00,23.1,20.9,30.48,NNW,330,0.0,-999.0,91,0.00,,,0.00,0,Wunderground v.1.15,2013-01-13 11:07:00,
2013-01-13 03:09:00,23.1,20.9,30.48,NNW,330,0.0,-999.0,91,0.00,,,0.00,0,Wunderground v.1.15,2013-01-13 11:09:00,
2013-01-13 03:10:00,23.1,20.9,30.48,NNW,330,0.0,-999.0,91,0.00,,,0.00,0,Wunderground v.1.15,2013-01-13 11:10:00,
2013-01-13 03:12:00,23.1,20.9,30.48,NNW,330,0.0,-999.0,91,0.00,,,0.00,0,Wunderground v.1.15,2013-01-13 11:12:00,
2013-01-13 03:14:00,23.1,20.9,30.48,NNW,330,0.0,-999.0,91,0.00,,,0.00,0,Wunderground v.1.15,2013-01-13 11:14:00,
2013-01-13 03:15:00,23.1,20.9,30.48,NNW,330,0.0,-999.0,91,0.00,,,0.00,0,Wunderground v.1.15,2013-01-13 11:15:00,
2013-01-13 03:17:00,23.1,20.9,30.48,NNW,330,0.0,-999.0,91,0.00,,,0.00,0,Wunderground v.1.15,2013-01-13 11:17:00,
2013-01-13 03:18:00,23.1,20.9,30.48,NNW,330,0.0,-999.0,91,0.00,,,0.00,0,Wunderground v.1.15,2013-01-13 11:18:00,
2013-01-13 03:19:00,23.1,20.9,30.48,NNW,330,0.0,-999.0,91,0.00,,,0.00,0,Wunderground v.1.15,2013-01-13 11:19:00,
2013-01-13 03:20:00,23.1,20.9,30.48,NNW,330,0.0,-999.0,91,0.00,,,0.00,0,Wunderground v.1.15,2013-01-13 11:20:00,
2013-01-13 03:22:00,23.1,20.9,30.48,NNW,330,0.0,-999.0,91,0.00,,,0.00,0,Wunderground v.1.15,2013-01-13 11:22:00,
2013-01-13 03:23:00,23.1,20.9,30.48,NNW,330,0.0,-999.0,91,0.00,,,0.00,0,Wunderground v.1.15,2013-01-13 11:23:00,
2013-01-13 03:24:00,23.1,20.9,30.48,NNW,330,0.0,-999.0,91,0.00,,,0.00,0,Wunderground v.1.15,2013-01-13 11:24:00,
2013-01-13 03:25:00,23.1,20.9,30.48,NNW,330,0.0,-999.0,91,0.00,,,0.00,0,Wunderground v.1.15,2013-01-13 11:25:00,
2013-01-13 03:27:00,23.1,20.9,30.48,NNW,330,0.0,-999.0,91,0.00,,,0.00,0,Wunderground v.1.15,2013-01-13 11:27:00,
2013-01-13 03:29:00,23.1,20.9,30.48,NNW,330,0.0,-999.0,91,0.00,,,0.00,0,Wunderground v.1.15,2013-01-13 11:29:00,
2013-01-13 03:30:00,23.1,20.9,30.48,NNW,330,0.0,-999.0,91,0.00,,,0.00,0,Wunderground v.1.15,2013-01-13 11:30:00,
2013-01-13 03:33:00,23.0,20.8,30.48,NNW,330,0.0,-999.0,91,0.00,,,0.00,0,Wunderground v.1.15,2013-01-13 11:33:00,
2013-01-13 03:34:00,23.0,20.8,30.48,NNW,330,0.0,-999.0,91,0.00,,,0.00,0,Wunderground v.1.15,2013-01-13 11:34:00,
2013-01-13 03:35:00,23.0,20.8,30.48,NNW,330,0.0,-999.0,91,0.00,,,0.00,0,Wunderground v.1.15,2013-01-13 11:35:00,
2013-01-13 03:38:00,23.0,20.8,30.48,NNW,330,0.0,-999.0,91,0.00,,,0.00,0,Wunderground v.1.15,2013-01-13 11:38:00,
2013-01-13 03:39:00,23.0,20.8,30.48,NNW,330,0.0,-999.0,91,0.00,,,0.00,0,Wunderground v.1.15,2013-01-13 11:39:00,
2013-01-13 03:41:00,23.0,20.8,30.48,NNW,330,0.0,-999.0,91,0.00,,,0.00,0,Wunderground v.1.15,2013-01-13 11:41:00,
2013-01-13 03:43:00,23.0,20.8,30.48,NNW,330,0.0,-999.0,91,0.00,,,0.00,0,Wunderground v.1.15,2013-01-13 11:43:00,
2013-01-13 03:45:00,23.0,20.8,30.47,NNW,330,0.0,-999.0,91,0.00,,,0.00,0,Wunderground v.1.15,2013-01-13 11:45:00,
2013-01-13 03:46:00,23.0,20.8,30.47,NNW,330,0.0,-999.0,91,0.00,,,0.00,0,Wunderground v.1.15,2013-01-13 11:46:00,
2013-01-13 03:48:00,23.0,20.8,30.47,NNW,330,0.0,-999.0,91,0.00,,,0.00,0,Wunderground v.1.15,2013-01-13 11:48:00,
2013-01-13 03:50:00,23.0,20.8,30.47,NNW,330,0.0,-999.0,91,0.00,,,0.00,0,Wunderground v.1.15,2013-01-13 11:50:00,
2013-01-13 03:51:00,23.0,20.8,30.47,NNW,330,0.0,-999.0,91,0.00,,,0.00,0,Wunderground v.1.15,2013-01-13 11:51:00,
2013-01-13 03:55:00,23.0,20.8,30.47,NNW,330,0.0,-999.0,91,0.00,,,0.00,0,Wunderground v.1.15,2013-01-13 11:55:00,
2013-01-13 03:56:00,23.0,20.8,30.47,NNW,330,0.0,-999.0,91,0.00,,,0.00,0,Wunderground v.1.15,2013-01-13 11:56:00,
2013-01-13 04:00:00,23.0,20.8,30.47,NNW,330,0.0,-999.0,91,0.00,,,0.00,0,Wunderground v.1.15,2013-01-13 12:00:00,
2013-01-13 04:01:00,22.8,20.6,30.47,NNW,330,0.0,-999.0,91,0.00,,,0.00,0,Wunderground v.1.15,2013-01-13 12:01:00,
2013-01-13 04:05:00,22.8,20.6,30.47,NNW,330,0.0,-999.0,91,0.00,,,0.00,0,Wunderground v.1.15,2013-01-13 12:05:00,
2013-01-13 04:06:00,22.8,20.6,30.47,NNW,330,0.0,-999.0,91,0.00,,,0.00,0,Wunderground v.1.15,2013-01-13 12:06:00,
2013-01-13 04:07:00,22.8,20.6,30.47,NNW,330,0.0,-999.0,91,0.00,,,0.00,0,Wunderground v.1.15,2013-01-13 12:07:00,
2013-01-13 04:10:00,22.8,20.6,30.47,NNW,330,0.0,-999.0,91,0.00,,,0.00,0,Wunderground v.1.15,2013-01-13 12:10:00,
2013-01-13 04:11:00,22.8,20.6,30.47,NNW,330,0.0,-999.0,91,0.00,,,0.00,0,Wunderground v.1.15,2013-01-13 12:11:00,
2013-01-13 04:12:00,22.8,20.6,30.47,NNW,330,0.0,-999.0,91,0.00,,,0.00,0,Wunderground v.1.15,2013-01-13 12:12:00,
2013-01-13 04:16:00,22.8,20.6,30.47,NNW,330,0.0,-999.0,91,0.00,,,0.00,0,Wunderground v.1.15,2013-01-13 12:16:00,
2013-01-13 04:17:00,22.8,20.6,30.47,NNW,330,0.0,-999.0,91,0.00,,,0.00,0,Wunderground v.1.15,2013-01-13 12:17:00,
2013-01-13 04:21:00,22.7,20.5,30.47,NNW,330,0.0,-999.0,91,0.00,,,0.00,0,Wunderground v.1.15,2013-01-13 12:21:00,
2013-01-13 04:22:00,22.7,20.5,30.47,NNW,330,0.0,-999.0,91,0.00,,,0.00,0,Wunderground v.1.15,2013-01-13 12:22:00,
2013-01-13 04:26:00,22.7,20.5,30.47,NNW,330,0.0,-999.0,91,0.00,,,0.00,0,Wunderground v.1.15,2013-01-13 12:26:00,
2013-01-13 04:27:00,22.7,20.5,30.47,NNW,330,0.0,-999.0,91,0.00,,,0.00,0,Wunderground v.1.15,2013-01-13 12:27:00,
2013-01-13 04:31:00,22.7,20.5,30.47,NNW,330,0.0,-999.0,91,0.00,,,0.00,0,Wunderground v.1.15,2013-01-13 12:31:00,
2013-01-13 04:32:00,22.7,20.5,30.47,NNW,330,0.0,-999.0,91,0.00,,,0.00,0,Wunderground v.1.15,2013-01-13 12:32:00,
2013-01-13 04:36:00,22.7,20.5,30.47,NNW,330,0.0,-999.0,91,0.00,,,0.00,0,Wunderground v.1.15,2013-01-13 12:36:00,
2013-01-13 04:37:00,22.7,20.5,30.47,NNW,330,0.0,-999.0,91,0.00,,,0.00,0,Wunderground v.1.15,2013-01-13 12:37:00,
2013-01-13 04:41:00,22.7,20.5,30.47,NNW,330,0.0,-999.0,91,0.00,,,0.00,0,Wunderground v.1.15,2013-01-13 12:41:00,
2013-01-13 04:42:00,22.7,20.5,30.47,NNW,330,0.0,-999.0,91,0.00,,,0.00,0,Wunderground v.1.15,2013-01-13 12:42:00,
2013-01-13 04:43:00,22.7,20.5,30.47,NNW,330,0.0,-999.0,91,0.00,,,0.00,0,Wunderground v.1.15,2013-01-13 12:43:00,
2013-01-13 04:46:00,22.7,20.5,30.47,NNW,330,0.0,-999.0,91,0.00,,,0.00,0,Wunderground v.1.15,2013-01-13 12:46:00,
2013-01-13 04:47:00,22.7,20.5,30.47,NNW,330,0.0,-999.0,91,0.00,,,0.00,0,Wunderground v.1.15,2013-01-13 12:47:00,
2013-01-13 04:48:00,22.7,20.5,30.47,NNW,330,0.0,-999.0,91,0.00,,,0.00,0,Wunderground v.1.15,2013-01-13 12:48:00,
2013-01-13 04:52:00,22.7,20.5,30.47,NNW,330,0.0,-999.0,91,0.00,,,0.00,0,Wunderground v.1.15,2013-01-13 12:52:00,
2013-01-13 04:53:00,22.7,20.5,30.47,NNW,330,0.0,-999.0,91,0.00,,,0.00,0,Wunderground v.1.15,2013-01-13 12:53:00,
2013-01-13 04:57:00,22.7,20.5,30.47,NNW,331,0.0,-999.0,91,0.00,,,0.00,0,Wunderground v.1.15,2013-01-13 12:57:00,
2013-01-13 04:58:00,22.7,20.5,30.47,NNW,330,0.0,-999.0,91,0.00,,,0.00,0,Wunderground v.1.15,2013-01-13 12:58:00,
2013-01-13 05:02:00,22.7,20.5,30.47,NNW,330,0.0,-999.0,91,0.00,,,0.00,0,Wunderground v.1.15,2013-01-13 13:02:00,
2013-01-13 05:03:00,22.7,20.5,30.47,NNW,330,0.0,-999.0,91,0.00,,,0.00,0,Wunderground v.1.15,2013-01-13 13:03:00,
2013-01-13 05:04:00,22.7,20.5,30.47,NNW,330,0.0,-999.0,91,0.00,,,0.00,0,Wunderground v.1.15,2013-01-13 13:04:00,
2013-01-13 05:07:00,22.7,20.5,30.47,NNW,330,0.0,-999.0,91,0.00,,,0.00,0,Wunderground v.1.15,2013-01-13 13:07:00,
2013-01-13 05:08:00,22.7,20.5,30.47,NNW,330,0.0,-999.0,91,0.00,,,0.00,0,Wunderground v.1.15,2013-01-13 13:08:00,
2013-01-13 05:09:00,22.7,20.5,30.47,NNW,330,0.0,-999.0,91,0.00,,,0.00,0,Wunderground v.1.15,2013-01-13 13:09:00,
2013-01-13 05:10:00,22.7,20.5,30.47,NNW,330,0.0,-999.0,91,0.00,,,0.00,0,Wunderground v.1.15,2013-01-13 13:10:00,
2013-01-13 05:12:00,22.7,20.5,30.47,NNW,330,0.0,-999.0,91,0.00,,,0.00,0,Wunderground v.1.15,2013-01-13 13:12:00,
2013-01-13 05:14:00,22.7,20.5,30.47,NNW,330,0.0,-999.0,91,0.00,,,0.00,0,Wunderground v.1.15,2013-01-13 13:14:00,
2013-01-13 05:15:00,22.7,20.5,30.47,NNW,330,0.0,-999.0,91,0.00,,,0.00,0,Wunderground v.1.15,2013-01-13 13:15:00,
2013-01-13 05:17:00,22.7,20.5,30.47,NNW,330,0.0,-999.0,91,0.00,,,0.00,0,Wunderground v.1.15,2013-01-13 13:17:00,
2013-01-13 05:19:00,22.7,20.5,30.47,NNW,330,0.0,-999.0,91,0.00,,,0.00,0,Wunderground v.1.15,2013-01-13 13:19:00,
2013-01-13 05:20:00,22.7,20.5,30.47,NNW,330,0.0,-999.0,91,0.00,,,0.00,0,Wunderground v.1.15,2013-01-13 13:20:00,
2013-01-13 05:22:00,22.7,20.5,30.47,NNW,330,0.0,-999.0,91,0.00,,,0.00,0,Wunderground v.1.15,2013-01-13 13:22:00,
2013-01-13 05:24:00,22.7,20.5,30.47,NNW,330,0.0,-999.0,91,0.00,,,0.00,0,Wunderground v.1.15,2013-01-13 13:24:00,
2013-01-13 05:25:00,22.7,20.5,30.47,NNW,330,0.0,-999.0,91,0.00,,,0.00,0,Wunderground v.1.15,2013-01-13 13:25:00,
2013-01-13 05:26:00,22.7,20.5,30.47,NNW,330,0.0,-999.0,91,0.00,,,0.00,0,Wunderground v.1.15,2013-01-13 13:26:00,
2013-01-13 05:28:00,22.8,20.6,30.47,NNW,331,0.0,-999.0,91,0.00,,,0.00,0,Wunderground v.1.15,2013-01-13 13:28:00,
2013-01-13 05:29:00,22.8,20.6,30.47,NNW,330,0.0,-999.0,91,0.00,,,0.00,0,Wunderground v.1.15,2013-01-13 13:29:00,
2013-01-13 05:30:00,22.8,20.6,30.47,NNW,330,0.0,-999.0,91,0.00,,,0.00,0,Wunderground v.1.15,2013-01-13 13:30:00,
2013-01-13 05:31:00,22.8,20.6,30.47,NNW,330,0.0,-999.0,91,0.00,,,0.00,0,Wunderground v.1.15,2013-01-13 13:31:00,
2013-01-13 05:33:00,22.8,20.6,30.47,NNW,330,0.0,-999.0,91,0.00,,,0.00,0,Wunderground v.1.15,2013-01-13 13:33:00,
2013-01-13 05:34:00,22.8,20.6,30.47,NNW,330,0.0,-999.0,91,0.00,,,0.00,0,Wunderground v.1.15,2013-01-13 13:34:00,
2013-01-13 05:36:00,22.8,20.6,30.47,NNW,330,0.0,-999.0,91,0.00,,,0.00,0,Wunderground v.1.15,2013-01-13 13:36:00,
2013-01-13 05:38:00,22.8,20.6,30.47,NNW,330,0.0,-999.0,91,0.00,,,0.00,0,Wunderground v.1.15,2013-01-13 13:38:00,
2013-01-13 05:40:00,22.8,20.6,30.47,NNW,330,0.0,-999.0,91,0.00,,,0.00,0,Wunderground v.1.15,2013-01-13 13:40:00,
2013-01-13 05:41:00,22.8,20.6,30.47,NNW,330,0.0,-999.0,91,0.00,,,0.00,0,Wunderground v.1.15,2013-01-13 13:41:00,
2013-01-13 05:42:00,22.8,20.6,30.47,NNW,330,0.0,-999.0,91,0.00,,,0.00,0,Wunderground v.1.15,2013-01-13 13:42:00,
2013-01-13 05:44:00,22.8,20.6,30.47,NNW,330,0.0,-999.0,91,0.00,,,0.00,0,Wunderground v.1.15,2013-01-13 13:44:00,
2013-01-13 05:45:00,22.8,20.6,30.47,NNW,330,0.0,-999.0,91,0.00,,,0.00,0,Wunderground v.1.15,2013-01-13 13:45:00,
2013-01-13 05:46:00,22.8,20.6,30.47,NNW,330,0.0,-999.0,91,0.00,,,0.00,0,Wunderground v.1.15,2013-01-13 13:46:00,
2013-01-13 05:47:00,22.8,20.6,30.47,NNW,330,0.0,-999.0,91,0.00,,,0.00,0,Wunderground v.1.15,2013-01-13 13:47:00,
2013-01-13 05:49:00,22.8,20.6,30.47,NNW,330,0.0,-999.0,91,0.00,,,0.00,0,Wunderground v.1.15,2013-01-13 13:49:00,
2013-01-13 05:50:00,22.8,20.6,30.47,NNW,330,0.0,-999.0,91,0.00,,,0.00,0,Wunderground v.1.15,2013-01-13 13:50:00,
2013-01-13 05:51:00,22.8,20.6,30.47,NNW,330,0.0,-999.0,91,0.00,,,0.00,0,Wunderground v.1.15,2013-01-13 13:51:00,
2013-01-13 05:52:00,22.8,20.6,30.47,NNW,330,0.0,-999.0,91,0.00,,,0.00,0,Wunderground v.1.15,2013-01-13 13:52:00,
2013-01-13 05:54:00,22.8,20.6,30.47,NNW,330,0.0,-999.0,91,0.00,,,0.00,0,Wunderground v.1.15,2013-01-13 13:54:00,
2013-01-13 05:56:00,22.8,20.6,30.47,NNW,330,0.0,-999.0,91,0.00,,,0.00,0,Wunderground v.1.15,2013-01-13 13:56:00,
2013-01-13 05:57:00,22.8,20.6,30.47,NNW,330,0.0,-999.0,91,0.00,,,0.00,0,Wunderground v.1.15,2013-01-13 13:57:00,
2013-01-13 05:59:00,22.8,20.6,30.47,NNW,330,0.0,-999.0,91,0.00,,,0.00,0,Wunderground v.1.15,2013-01-13 13:59:00,
2013-01-13 06:01:00,22.8,20.6,30.47,NNW,330,0.0,-999.0,91,0.00,,,0.00,0,Wunderground v.1.15,2013-01-13 14:01:00,
2013-01-13 06:02:00,22.8,20.6,30.47,NNW,330,0.0,-999.0,91,0.00,,,0.00,0,Wunderground v.1.15,2013-01-13 14:02:00,
2013-01-13 06:04:00,22.8,20.6,30.47,NNW,330,0.0,-999.0,91,0.00,,,0.00,0,Wunderground v.1.15,2013-01-13 14:04:00,
2013-01-13 06:06:00,22.8,20.6,30.47,NNW,330,0.0,-999.0,91,0.00,,,0.00,0,Wunderground v.1.15,2013-01-13 14:06:00,
2013-01-13 06:07:00,22.8,20.6,30.47,NNW,330,0.0,-999.0,91,0.00,,,0.00,0,Wunderground v.1.15,2013-01-13 14:07:00,
2013-01-13 06:10:00,22.8,20.6,30.47,NNW,330,0.0,-999.0,91,0.00,,,0.00,0,Wunderground v.1.15,2013-01-13 14:10:00,
2013-01-13 06:11:00,22.8,20.6,30.47,NNW,330,0.0,-999.0,91,0.00,,,0.00,0,Wunderground v.1.15,2013-01-13 14:11:00,
2013-01-13 06:12:00,22.8,20.6,30.47,NNW,330,0.0,-999.0,91,0.00,,,0.00,0,Wunderground v.1.15,2013-01-13 14:12:00,
2013-01-13 06:15:00,22.8,20.6,30.47,NNW,330,0.0,-999.0,91,0.00,,,0.00,0,Wunderground v.1.15,2013-01-13 14:15:00,
2013-01-13 06:17:00,22.8,20.6,30.48,NNW,330,0.0,-999.0,91,0.00,,,0.00,0,Wunderground v.1.15,2013-01-13 14:17:00,
2013-01-13 06:20:00,22.8,20.6,30.48,NNW,330,0.0,-999.0,91,0.00,,,0.00,0,Wunderground v.1.15,2013-01-13 14:20:00,
2013-01-13 06:22:00,22.8,20.6,30.48,NNW,330,0.0,-999.0,91,0.00,,,0.00,0,Wunderground v.1.15,2013-01-13 14:22:00,
2013-01-13 06:25:00,22.8,20.6,30.48,NNW,330,0.0,-999.0,91,0.00,,,0.00,0,Wunderground v.1.15,2013-01-13 14:25:00,
2013-01-13 06:27:00,22.8,20.6,30.48,NNW,330,0.0,-999.0,91,0.00,,,0.00,0,Wunderground v.1.15,2013-01-13 14:27:00,
2013-01-13 06:28:00,22.8,20.6,30.48,NNW,330,0.0,-999.0,91,0.00,,,0.00,0,Wunderground v.1.15,2013-01-13 14:28:00,
2013-01-13 06:30:00,22.8,20.6,30.48,NNW,330,0.0,-999.0,91,0.00,,,0.00,0,Wunderground v.1.15,2013-01-13 14:30:00,
2013-01-13 06:32:00,22.8,20.6,30.48,NNW,330,0.0,-999.0,91,0.00,,,0.00,0,Wunderground v.1.15,2013-01-13 14:32:00,
2013-01-13 06:33:00,22.8,20.6,30.48,NNW,330,0.0,-999.0,91,0.00,,,0.00,0,Wunderground v.1.15,2013-01-13 14:33:00,
2013-01-13 06:35:00,22.8,20.6,30.48,NNW,330,0.0,-999.0,91,0.00,,,0.00,0,Wunderground v.1.15,2013-01-13 14:35:00,
2013-01-13 06:37:00,22.8,20.6,30.48,NNW,330,0.0,-999.0,91,0.00,,,0.00,0,Wunderground v.1.15,2013-01-13 14:37:00,
2013-01-13 06:38:00,22.8,20.6,30.48,NNW,330,0.0,-999.0,91,0.00,,,0.00,0,Wunderground v.1.15,2013-01-13 14:38:00,
2013-01-13 06:40:00,22.8,20.6,30.48,NNW,330,0.0,-999.0,91,0.00,,,0.00,0,Wunderground v.1.15,2013-01-13 14:40:00,
2013-01-13 06:42:00,22.7,20.5,30.48,NNW,330,0.0,-999.0,91,0.00,,,0.00,0,Wunderground v.1.15,2013-01-13 14:42:00,
2013-01-13 06:44:00,22.7,20.5,30.48,NNW,330,0.0,-999.0,91,0.00,,,0.00,0,Wunderground v.1.15,2013-01-13 14:44:00,
2013-01-13 06:45:00,22.7,20.5,30.49,NNW,330,0.0,-999.0,91,0.00,,,0.00,0,Wunderground v.1.15,2013-01-13 14:45:00,
2013-01-13 06:47:00,22.7,20.5,30.49,NNW,330,0.0,-999.0,91,0.00,,,0.00,0,Wunderground v.1.15,2013-01-13 14:47:00,
2013-01-13 06:48:00,22.7,20.5,30.49,NNW,330,0.0,-999.0,91,0.00,,,0.00,0,Wunderground v.1.15,2013-01-13 14:48:00,
2013-01-13 06:50:00,22.7,20.5,30.49,NNW,330,0.0,-999.0,91,0.00,,,0.00,0,Wunderground v.1.15,2013-01-13 14:50:00,
2013-01-13 06:52:00,22.7,20.5,30.49,NNW,330,0.0,-999.0,91,0.00,,,0.00,0,Wunderground v.1.15,2013-01-13 14:52:00,
2013-01-13 06:53:00,22.7,20.5,30.49,NNW,330,0.0,-999.0,91,0.00,,,0.00,0,Wunderground v.1.15,2013-01-13 14:53:00,
2013-01-13 06:55:00,22.7,20.5,30.49,NNW,330,0.0,-999.0,91,0.00,,,0.00,0,Wunderground v.1.15,2013-01-13 14:55:00,
2013-01-13 06:58:00,22.7,20.5,30.49,NNW,330,0.0,-999.0,91,0.00,,,0.00,0,Wunderground v.1.15,2013-01-13 14:58:00,
2013-01-13 07:00:00,22.7,20.5,30.49,NNW,330,0.0,-999.0,91,0.00,,,0.00,0,Wunderground v.1.15,2013-01-13 15:00:00,
2013-01-13 07:03:00,22.7,20.5,30.49,NNW,330,0.0,-999.0,91,0.00,,,0.00,0,Wunderground v.1.15,2013-01-13 15:03:00,
2013-01-13 07:05:00,22.5,20.3,30.49,NNW,330,0.0,-999.0,91,0.00,,,0.00,0,Wunderground v.1.15,2013-01-13 15:05:00,
2013-01-13 07:06:00,22.5,20.3,30.49,NNW,330,0.0,-999.0,91,0.00,,,0.00,0,Wunderground v.1.15,2013-01-13 15:06:00,
2013-01-13 07:08:00,22.5,20.3,30.49,NNW,330,0.0,-999.0,91,0.00,,,0.00,0,Wunderground v.1.15,2013-01-13 15:08:00,
2013-01-13 07:09:00,22.5,20.3,30.49,NNW,331,0.0,-999.0,91,0.00,,,0.00,0,Wunderground v.1.15,2013-01-13 15:09:00,
2013-01-13 07:11:00,22.5,20.3,30.49,NNW,330,0.0,-999.0,91,0.00,,,0.00,0,Wunderground v.1.15,2013-01-13 15:11:00,
2013-01-13 07:13:00,22.5,20.3,30.49,NNW,330,0.0,-999.0,91,0.00,,,0.00,0,Wunderground v.1.15,2013-01-13 15:13:00,
2013-01-13 07:14:00,22.5,20.3,30.49,NNW,330,0.0,-999.0,91,0.00,,,0.00,0,Wunderground v.1.15,2013-01-13 15:14:00,
2013-01-13 07:16:00,22.5,20.3,30.50,NNW,330,0.0,-999.0,91,0.00,,,0.00,0,Wunderground v.1.15,2013-01-13 15:16:00,
2013-01-13 07:18:00,22.5,20.3,30.50,NNW,330,0.0,-999.0,91,0.00,,,0.00,0,Wunderground v.1.15,2013-01-13 15:18:00,
2013-01-13 07:19:00,22.5,20.3,30.50,NNW,330,0.0,-999.0,91,0.00,,,0.00,0,Wunderground v.1.15,2013-01-13 15:19:00,
2013-01-13 07:21:00,22.5,20.3,30.50,NNW,330,0.0,-999.0,91,0.00,,,0.00,0,Wunderground v.1.15,2013-01-13 15:21:00,
2013-01-13 07:22:00,22.5,20.3,30.50,NNW,330,0.0,-999.0,91,0.00,,,0.00,0,Wunderground v.1.15,2013-01-13 15:22:00,
2013-01-13 07:24:00,22.5,20.3,30.50,NNW,330,0.0,-999.0,91,0.00,,,0.00,0,Wunderground v.1.15,2013-01-13 15:24:00,
2013-01-13 07:26:00,22.5,20.3,30.50,NNW,330,0.0,-999.0,91,0.00,,,0.00,0,Wunderground v.1.15,2013-01-13 15:26:00,
2013-01-13 07:27:00,22.5,20.3,30.50,NNW,330,0.0,-999.0,91,0.00,,,0.00,0,Wunderground v.1.15,2013-01-13 15:27:00,
2013-01-13 07:29:00,22.5,20.3,30.50,NNW,330,0.0,-999.0,91,0.00,,,0.00,0,Wunderground v.1.15,2013-01-13 15:29:00,
2013-01-13 07:30:00,22.5,20.3,30.50,NNW,330,0.0,-999.0,91,0.00,,,0.00,0,Wunderground v.1.15,2013-01-13 15:30:00,
2013-01-13 07:31:00,22.5,20.3,30.50,NNW,330,0.0,-999.0,91,0.00,,,0.00,0,Wunderground v.1.15,2013-01-13 15:31:00,
2013-01-13 07:32:00,22.5,20.3,30.50,NNW,330,0.0,-999.0,91,0.00,,,0.00,0,Wunderground v.1.15,2013-01-13 15:32:00,
2013-01-13 07:34:00,22.5,20.3,30.50,NNW,330,0.0,-999.0,91,0.00,,,0.00,0,Wunderground v.1.15,2013-01-13 15:34:00,
2013-01-13 07:35:00,22.5,20.3,30.50,NNW,330,0.0,-999.0,91,0.00,,,0.00,0,Wunderground v.1.15,2013-01-13 15:35:00,
2013-01-13 07:37:00,22.5,20.3,30.50,NNW,330,0.0,-999.0,91,0.00,,,0.00,0,Wunderground v.1.15,2013-01-13 15:37:00,
2013-01-13 07:39:00,22.5,20.3,30.50,NNW,330,0.0,-999.0,91,0.00,,,0.00,0,Wunderground v.1.15,2013-01-13 15:39:00,
2013-01-13 07:40:00,22.5,20.3,30.50,NNW,331,0.0,-999.0,91,0.00,,,0.00,0,Wunderground v.1.15,2013-01-13 15:40:00,
2013-01-13 07:42:00,22.5,20.3,30.50,NNW,330,0.0,-999.0,91,0.00,,,0.00,0,Wunderground v.1.15,2013-01-13 15:42:00,
2013-01-13 07:44:00,22.5,20.3,30.50,NNW,330,0.0,-999.0,91,0.00,,,0.00,0,Wunderground v.1.15,2013-01-13 15:44:00,
2013-01-13 07:46:00,22.4,20.2,30.49,NNW,330,0.0,-999.0,91,0.00,,,0.00,0,Wunderground v.1.15,2013-01-13 15:46:00,
2013-01-13 07:47:00,22.4,20.2,30.49,NNW,330,0.0,-999.0,91,0.00,,,0.00,0,Wunderground v.1.15,2013-01-13 15:47:00,
2013-01-13 07:48:00,22.4,20.2,30.49,NNW,330,0.0,-999.0,91,0.00,,,0.00,0,Wunderground v.1.15,2013-01-13 15:48:00,
2013-01-13 07:49:00,22.4,20.2,30.49,NNW,330,0.0,-999.0,91,0.00,,,0.00,0,Wunderground v.1.15,2013-01-13 15:49:00,
2013-01-13 07:51:00,22.4,20.2,30.49,NNW,330,0.0,-999.0,91,0.00,,,0.00,0,Wunderground v.1.15,2013-01-13 15:51:00,
2013-01-13 07:53:00,22.4,20.2,30.49,NNW,330,0.0,-999.0,91,0.00,,,0.00,0,Wunderground v.1.15,2013-01-13 15:53:00,
2013-01-13 07:54:00,22.4,20.2,30.49,NNW,330,0.0,-999.0,91,0.00,,,0.00,0,Wunderground v.1.15,2013-01-13 15:54:00,
2013-01-13 07:56:00,22.4,20.2,30.49,NNW,330,0.0,-999.0,91,0.00,,,0.00,0,Wunderground v.1.15,2013-01-13 15:56:00,
2013-01-13 07:59:00,22.4,20.2,30.49,NNW,330,0.0,-999.0,91,0.00,,,0.00,0,Wunderground v.1.15,2013-01-13 15:59:00,
2013-01-13 08:00:00,22.4,20.2,30.49,NNW,333,0.0,-999.0,91,0.00,,,0.00,0,Wunderground v.1.15,2013-01-13 16:00:00,
2013-01-13 08:01:00,22.4,20.2,30.49,NNW,333,0.0,-999.0,91,0.00,,,0.00,0,Wunderground v.1.15,2013-01-13 16:01:00,
2013-01-13 08:04:00,22.4,20.2,30.49,NNW,331,0.0,-999.0,91,0.00,,,0.00,0,Wunderground v.1.15,2013-01-13 16:04:00,
2013-01-13 08:05:00,22.4,20.2,30.49,NNW,331,0.0,-999.0,91,0.00,,,0.00,0,Wunderground v.1.15,2013-01-13 16:05:00,
2013-01-13 08:07:00,22.4,20.2,30.49,NNW,333,0.0,-999.0,91,0.00,,,0.00,0,Wunderground v.1.15,2013-01-13 16:07:00,
2013-01-13 08:09:00,22.4,20.2,30.49,NNW,331,0.0,-999.0,91,0.00,,,0.00,0,Wunderground v.1.15,2013-01-13 16:09:00,
2013-01-13 08:10:00,22.4,20.2,30.49,NNW,333,0.0,-999.0,91,0.00,,,0.00,0,Wunderground v.1.15,2013-01-13 16:10:00,
2013-01-13 08:12:00,22.5,20.3,30.49,NNW,331,0.0,-999.0,91,0.00,,,0.00,0,Wunderground v.1.15,2013-01-13 16:12:00,
2013-01-13 08:15:00,22.5,20.3,30.49,NNW,333,0.0,-999.0,91,0.00,,,0.00,5,Wunderground v.1.15,2013-01-13 16:15:00,
2013-01-13 08:17:00,22.5,20.3,30.50,NNW,331,0.0,-999.0,91,0.00,,,0.00,5,Wunderground v.1.15,2013-01-13 16:17:00,
2013-01-13 08:20:00,22.5,20.3,30.50,NNW,333,0.0,-999.0,91,0.00,,,0.00,7,Wunderground v.1.15,2013-01-13 16:20:00,
2013-01-13 08:21:00,22.5,20.3,30.50,NNW,333,0.0,-999.0,91,0.00,,,0.00,7,Wunderground v.1.15,2013-01-13 16:21:00,
2013-01-13 08:22:00,22.5,20.3,30.50,NNW,331,0.0,-999.0,91,0.00,,,0.00,7,Wunderground v.1.15,2013-01-13 16:22:00,
2013-01-13 08:25:00,22.7,20.5,30.50,NNW,333,0.0,-999.0,91,0.00,,,0.00,11,Wunderground v.1.15,2013-01-13 16:25:00,
2013-01-13 08:26:00,22.7,20.5,30.50,NNW,333,0.0,-999.0,91,0.00,,,0.00,12,Wunderground v.1.15,2013-01-13 16:26:00,
2013-01-13 08:27:00,22.7,20.5,30.50,NNW,331,0.0,-999.0,91,0.00,,,0.00,12,Wunderground v.1.15,2013-01-13 16:27:00,
2013-01-13 08:30:00,22.8,20.6,30.50,NNW,331,0.0,-999.0,91,0.00,,,0.00,12,Wunderground v.1.15,2013-01-13 16:30:00,
2013-01-13 08:31:00,22.8,20.6,30.50,NNW,331,0.0,-999.0,91,0.00,,,0.00,12,Wunderground v.1.15,2013-01-13 16:31:00,
2013-01-13 08:32:00,22.8,20.6,30.50,NNW,333,0.0,-999.0,91,0.00,,,0.00,12,Wunderground v.1.15,2013-01-13 16:32:00,
2013-01-13 08:36:00,22.8,20.6,30.50,NNW,331,0.0,-999.0,91,0.00,,,0.00,12,Wunderground v.1.15,2013-01-13 16:36:00,
2013-01-13 08:37:00,23.0,20.8,30.50,NNW,333,0.0,-999.0,91,0.00,,,0.00,12,Wunderground v.1.15,2013-01-13 16:37:00,
2013-01-13 08:41:00,23.0,20.8,30.50,NNW,333,0.0,-999.0,91,0.00,,,0.00,14,Wunderground v.1.15,2013-01-13 16:41:00,
2013-01-13 08:42:00,23.1,20.9,30.50,NNW,333,0.0,-999.0,91,0.00,,,0.00,14,Wunderground v.1.15,2013-01-13 16:42:00,
2013-01-13 08:46:00,23.1,20.9,30.49,NNW,333,0.0,-999.0,91,0.00,,,0.00,14,Wunderground v.1.15,2013-01-13 16:46:00,
2013-01-13 08:47:00,23.1,20.9,30.49,NNW,333,0.0,-999.0,91,0.00,,,0.00,14,Wunderground v.1.15,2013-01-13 16:47:00,
2013-01-13 08:51:00,23.3,21.1,30.49,NNW,333,0.0,-999.0,91,0.00,,,0.00,14,Wunderground v.1.15,2013-01-13 16:51:00,
2013-01-13 08:53:00,23.3,21.1,30.49,NNW,331,0.0,-999.0,91,0.00,,,0.00,14,Wunderground v.1.15,2013-01-13 16:53:00,
2013-01-13 08:56:00,23.5,21.3,30.49,NNW,333,0.0,-999.0,91,0.00,,,0.00,14,Wunderground v.1.15,2013-01-13 16:56:00,
2013-01-13 08:57:00,23.5,21.3,30.49,NNW,333,0.0,-999.0,91,0.00,,,0.00,14,Wunderground v.1.15,2013-01-13 16:57:00,
2013-01-13 08:58:00,23.5,21.3,30.49,NNW,333,0.0,-999.0,91,0.00,,,0.00,14,Wunderground v.1.15,2013-01-13 16:58:00,
2013-01-13 09:01:00,23.5,21.3,30.50,NNW,333,0.0,-999.0,91,0.00,,,0.00,14,Wunderground v.1.15,2013-01-13 17:01:00,
2013-01-13 09:02:00,23.6,21.4,30.50,NNW,333,0.0,-999.0,91,0.00,,,0.00,14,Wunderground v.1.15,2013-01-13 17:02:00,
2013-01-13 09:03:00,23.6,21.4,30.50,NNW,333,0.0,-999.0,91,0.00,,,0.00,14,Wunderground v.1.15,2013-01-13 17:03:00,
2013-01-13 09:04:00,23.6,21.4,30.50,NNW,331,0.0,-999.0,91,0.00,,,0.00,14,Wunderground v.1.15,2013-01-13 17:04:00,
2013-01-13 09:06:00,23.8,21.6,30.50,NNW,333,0.0,-999.0,91,0.00,,,0.00,14,Wunderground v.1.15,2013-01-13 17:06:00,
2013-01-13 09:07:00,23.8,21.6,30.50,NNW,333,0.0,-999.0,91,0.00,,,0.00,14,Wunderground v.1.15,2013-01-13 17:07:00,
2013-01-13 09:08:00,23.8,21.6,30.50,NNW,333,0.0,-999.0,91,0.00,,,0.00,18,Wunderground v.1.15,2013-01-13 17:08:00,
2013-01-13 09:09:00,23.8,21.6,30.50,NNW,331,0.0,-999.0,91,0.00,,,0.00,18,Wunderground v.1.15,2013-01-13 17:09:00,
2013-01-13 09:11:00,23.8,21.6,30.50,NNW,331,0.0,-999.0,91,0.00,,,0.00,25,Wunderground v.1.15,2013-01-13 17:11:00,
2013-01-13 09:12:00,23.9,21.7,30.50,NNW,333,0.0,-999.0,91,0.00,,,0.00,25,Wunderground v.1.15,2013-01-13 17:12:00,
2013-01-13 09:14:00,23.9,21.7,30.50,NNW,331,0.0,-999.0,91,0.00,,,0.00,25,Wunderground v.1.15,2013-01-13 17:14:00,
2013-01-13 09:16:00,24.1,21.9,30.50,NNW,333,0.0,-999.0,91,0.00,,,0.00,32,Wunderground v.1.15,2013-01-13 17:16:00,
2013-01-13 09:17:00,24.1,21.9,30.50,NNW,333,0.0,-999.0,91,0.00,,,0.00,32,Wunderground v.1.15,2013-01-13 17:17:00,
2013-01-13 09:19:00,24.1,21.9,30.50,NNW,333,0.0,-999.0,91,0.00,,,0.00,32,Wunderground v.1.15,2013-01-13 17:19:00,
2013-01-13 09:22:00,24.2,22.0,30.50,North,11,0.0,-999.0,91,0.00,,,0.00,30,Wunderground v.1.15,2013-01-13 17:22:00,
2013-01-13 09:23:00,24.2,22.0,30.50,North,11,0.0,-999.0,91,0.00,,,0.00,30,Wunderground v.1.15,2013-01-13 17:23:00,
2013-01-13 09:24:00,24.2,22.0,30.50,North,11,0.0,-999.0,91,0.00,,,0.00,28,Wunderground v.1.15,2013-01-13 17:24:00,
2013-01-13 09:27:00,24.4,22.2,30.50,North,11,0.0,-999.0,91,0.00,,,0.00,28,Wunderground v.1.15,2013-01-13 17:27:00,
2013-01-13 09:28:00,24.5,22.2,30.50,North,11,0.0,-999.0,91,0.00,,,0.00,28,Wunderground v.1.15,2013-01-13 17:28:00,
2013-01-13 09:29:00,24.5,22.2,30.50,North,11,0.0,-999.0,91,0.00,,,0.00,28,Wunderground v.1.15,2013-01-13 17:29:00,
2013-01-13 09:30:00,24.5,22.2,30.50,North,11,0.0,-999.0,91,0.00,,,0.00,28,Wunderground v.1.15,2013-01-13 17:30:00,
2013-01-13 09:32:00,24.5,22.2,30.50,North,11,0.0,-999.0,91,0.00,,,0.00,28,Wunderground v.1.15,2013-01-13 17:32:00,
2013-01-13 09:33:00,24.7,22.4,30.50,North,11,0.0,-999.0,91,0.00,,,0.00,28,Wunderground v.1.15,2013-01-13 17:33:00,
2013-01-13 09:34:00,24.7,22.4,30.50,North,11,0.0,-999.0,91,0.00,,,0.00,28,Wunderground v.1.15,2013-01-13 17:34:00,
2013-01-13 09:35:00,24.7,22.4,30.50,North,11,0.0,-999.0,91,0.00,,,0.00,28,Wunderground v.1.15,2013-01-13 17:35:00,
2013-01-13 09:37:00,24.8,22.5,30.50,North,11,0.0,-999.0,91,0.00,,,0.00,33,Wunderground v.1.15,2013-01-13 17:37:00,
2013-01-13 09:38:00,24.8,22.5,30.50,North,11,0.0,-999.0,91,0.00,,,0.00,33,Wunderground v.1.15,2013-01-13 17:38:00,
2013-01-13 09:39:00,24.8,22.5,30.50,North,11,0.0,-999.0,91,0.00,,,0.00,33,Wunderground v.1.15,2013-01-13 17:39:00,
2013-01-13 09:40:00,24.8,22.5,30.50,North,4,0.0,-999.0,91,0.00,,,0.00,28,Wunderground v.1.15,2013-01-13 17:40:00,
2013-01-13 09:43:00,25.0,22.7,30.50,North,11,0.0,-999.0,91,0.00,,,0.00,28,Wunderground v.1.15,2013-01-13 17:43:00,
2013-01-13 09:44:00,25.0,22.7,30.50,North,11,0.0,-999.0,91,0.00,,,0.00,28,Wunderground v.1.15,2013-01-13 17:44:00,
2013-01-13 09:45:00,25.0,22.7,30.50,North,11,0.0,-999.0,91,0.00,,,0.00,25,Wunderground v.1.15,2013-01-13 17:45:00,
2013-01-13 09:48:00,25.0,22.7,30.50,North,11,0.0,-999.0,91,0.00,,,0.00,25,Wunderground v.1.15,2013-01-13 17:48:00,
2013-01-13 09:49:00,25.1,22.8,30.50,North,11,0.0,-999.0,91,0.00,,,0.00,19,Wunderground v.1.15,2013-01-13 17:49:00,
2013-01-13 09:50:00,25.1,22.8,30.50,North,11,0.0,-999.0,91,0.00,,,0.00,19,Wunderground v.1.15,2013-01-13 17:50:00,
2013-01-13 09:53:00,25.1,22.8,30.50,North,11,0.0,-999.0,91,0.00,,,0.00,16,Wunderground v.1.15,2013-01-13 17:53:00,
2013-01-13 09:54:00,25.1,22.8,30.50,North,11,0.0,-999.0,91,0.00,,,0.00,16,Wunderground v.1.15,2013-01-13 17:54:00,
2013-01-13 09:55:00,25.1,22.8,30.50,North,11,0.0,-999.0,91,0.00,,,0.00,16,Wunderground v.1.15,2013-01-13 17:55:00,
2013-01-13 09:58:00,25.3,23.0,30.50,North,11,0.0,-999.0,91,0.00,,,0.00,21,Wunderground v.1.15,2013-01-13 17:58:00,
2013-01-13 09:59:00,25.3,23.0,30.50,North,11,0.0,-999.0,91,0.00,,,0.00,21,Wunderground v.1.15,2013-01-13 17:59:00,
2013-01-13 10:00:00,25.3,23.0,30.50,North,11,0.0,-999.0,91,0.00,,,0.00,21,Wunderground v.1.15,2013-01-13 18:00:00,
2013-01-13 10:01:00,25.3,23.0,30.50,North,11,0.0,-999.0,91,0.00,,,0.00,21,Wunderground v.1.15,2013-01-13 18:01:00,
2013-01-13 10:03:00,25.3,23.0,30.50,North,11,0.0,-999.0,91,0.00,,,0.00,28,Wunderground v.1.15,2013-01-13 18:03:00,
2013-01-13 10:04:00,25.3,23.0,30.50,North,11,0.0,-999.0,91,0.00,,,0.00,28,Wunderground v.1.15,2013-01-13 18:04:00,
2013-01-13 10:05:00,25.4,23.1,30.50,North,11,0.0,-999.0,91,0.00,,,0.00,28,Wunderground v.1.15,2013-01-13 18:05:00,
2013-01-13 10:06:00,25.4,23.1,30.50,North,11,0.0,-999.0,91,0.00,,,0.00,25,Wunderground v.1.15,2013-01-13 18:06:00,
2013-01-13 10:08:00,25.4,23.1,30.50,North,11,0.0,-999.0,91,0.00,,,0.00,25,Wunderground v.1.15,2013-01-13 18:08:00,
2013-01-13 10:09:00,25.4,23.1,30.50,North,11,0.0,-999.0,91,0.00,,,0.00,25,Wunderground v.1.15,2013-01-13 18:09:00,
2013-01-13 10:10:00,25.6,23.3,30.50,North,11,0.0,-999.0,91,0.00,,,0.00,26,Wunderground v.1.15,2013-01-13 18:10:00,
2013-01-13 10:11:00,25.6,23.3,30.50,North,11,0.0,-999.0,91,0.00,,,0.00,26,Wunderground v.1.15,2013-01-13 18:11:00,
2013-01-13 10:14:00,25.6,23.3,30.50,North,11,0.0,-999.0,91,0.00,,,0.00,26,Wunderground v.1.15,2013-01-13 18:14:00,
2013-01-13 10:15:00,25.6,23.3,30.50,North,11,0.0,-999.0,91,0.00,,,0.00,21,Wunderground v.1.15,2013-01-13 18:15:00,
2013-01-13 10:16:00,25.6,23.3,30.50,North,11,0.0,-999.0,91,0.00,,,0.00,21,Wunderground v.1.15,2013-01-13 18:16:00,
2013-01-13 10:19:00,25.7,23.4,30.50,North,11,0.0,-999.0,91,0.00,,,0.00,23,Wunderground v.1.15,2013-01-13 18:19:00,
2013-01-13 10:20:00,25.7,23.4,30.50,North,11,0.0,-999.0,91,0.00,,,0.00,23,Wunderground v.1.15,2013-01-13 18:20:00,
2013-01-13 10:21:00,25.7,23.4,30.50,North,11,0.0,-999.0,91,0.00,,,0.00,23,Wunderground v.1.15,2013-01-13 18:21:00,
2013-01-13 10:22:00,25.7,23.4,30.50,North,11,0.0,-999.0,91,0.00,,,0.00,23,Wunderground v.1.15,2013-01-13 18:22:00,
2013-01-13 10:24:00,25.9,23.6,30.50,North,11,0.0,-999.0,91,0.00,,,0.00,25,Wunderground v.1.15,2013-01-13 18:24:00,
2013-01-13 10:25:00,25.9,23.6,30.50,North,11,0.0,-999.0,91,0.00,,,0.00,25,Wunderground v.1.15,2013-01-13 18:25:00,
2013-01-13 10:26:00,25.9,23.6,30.50,North,11,0.0,-999.0,91,0.00,,,0.00,25,Wunderground v.1.15,2013-01-13 18:26:00,
2013-01-13 10:27:00,25.9,23.6,30.50,North,11,0.0,-999.0,91,0.00,,,0.00,25,Wunderground v.1.15,2013-01-13 18:27:00,
2013-01-13 10:29:00,25.9,23.6,30.50,North,11,0.0,-999.0,91,0.00,,,0.00,25,Wunderground v.1.15,2013-01-13 18:29:00,
2013-01-13 10:30:00,26.0,23.7,30.50,North,4,0.0,-999.0,91,0.00,,,0.00,23,Wunderground v.1.15,2013-01-13 18:30:00,
2013-01-13 10:31:00,26.0,23.7,30.50,North,11,0.0,-999.0,91,0.00,,,0.00,23,Wunderground v.1.15,2013-01-13 18:31:00,
2013-01-13 10:32:00,26.0,23.7,30.50,North,11,0.0,-999.0,91,0.00,,,0.00,23,Wunderground v.1.15,2013-01-13 18:32:00,
2013-01-13 10:35:00,26.0,23.7,30.50,North,11,0.0,-999.0,91,0.00,,,0.00,25,Wunderground v.1.15,2013-01-13 18:35:00,
2013-01-13 10:36:00,26.0,23.7,30.50,North,11,0.0,-999.0,91,0.00,,,0.00,25,Wunderground v.1.15,2013-01-13 18:36:00,
2013-01-13 10:37:00,26.2,23.9,30.50,North,11,0.0,-999.0,91,0.00,,,0.00,25,Wunderground v.1.15,2013-01-13 18:37:00,
2013-01-13 10:41:00,26.2,23.9,30.50,North,11,1.0,-999.0,91,0.00,,,0.00,26,Wunderground v.1.15,2013-01-13 18:41:00,
2013-01-13 10:42:00,26.3,24.0,30.50,NE,35,0.0,-999.0,91,0.00,,,0.00,26,Wunderground v.1.15,2013-01-13 18:42:00,
2013-01-13 10:46:00,26.3,24.0,30.50,NE,35,0.0,-999.0,91,0.00,,,0.00,26,Wunderground v.1.15,2013-01-13 18:46:00,
2013-01-13 10:47:00,26.3,24.0,30.50,NE,35,1.0,-999.0,91,0.00,,,0.00,26,Wunderground v.1.15,2013-01-13 18:47:00,
2013-01-13 10:51:00,26.4,24.1,30.50,NE,35,0.0,-999.0,91,0.00,,,0.00,26,Wunderground v.1.15,2013-01-13 18:51:00,
2013-01-13 10:52:00,26.4,24.1,30.50,NE,35,0.0,-999.0,91,0.00,,,0.00,28,Wunderground v.1.15,2013-01-13 18:52:00,
2013-01-13 10:53:00,26.4,24.1,30.50,NE,35,0.0,-999.0,91,0.00,,,0.00,28,Wunderground v.1.15,2013-01-13 18:53:00,
2013-01-13 10:56:00,26.6,24.3,30.50,NE,35,0.0,-999.0,91,0.00,,,0.00,28,Wunderground v.1.15,2013-01-13 18:56:00,
2013-01-13 10:57:00,26.6,24.3,30.50,NE,35,0.0,-999.0,91,0.00,,,0.00,28,Wunderground v.1.15,2013-01-13 18:57:00,
2013-01-13 10:58:00,26.6,24.3,30.50,NE,35,0.0,-999.0,91,0.00,,,0.00,28,Wunderground v.1.15,2013-01-13 18:58:00,
2013-01-13 11:01:00,26.7,24.4,30.49,NE,35,0.0,-999.0,91,0.00,,,0.00,28,Wunderground v.1.15,2013-01-13 19:01:00,
2013-01-13 11:02:00,26.7,24.4,30.49,NE,35,0.0,-999.0,91,0.00,,,0.00,28,Wunderground v.1.15,2013-01-13 19:02:00,
2013-01-13 11:03:00,26.9,24.6,30.49,NE,35,0.0,-999.0,91,0.00,,,0.00,28,Wunderground v.1.15,2013-01-13 19:03:00,
2013-01-13 11:04:00,27.0,24.7,30.49,NE,35,0.0,-999.0,91,0.00,,,0.00,30,Wunderground v.1.15,2013-01-13 19:04:00,
2013-01-13 11:07:00,27.0,24.7,30.49,NE,35,0.0,-999.0,91,0.00,,,0.00,30,Wunderground v.1.15,2013-01-13 19:07:00,
2013-01-13 11:08:00,27.2,24.9,30.49,NE,35,0.0,-999.0,91,0.00,,,0.00,30,Wunderground v.1.15,2013-01-13 19:08:00,
2013-01-13 11:09:00,27.2,24.9,30.49,NE,35,1.0,-999.0,91,0.00,,,0.00,30,Wunderground v.1.15,2013-01-13 19:09:00,
2013-01-13 11:12:00,27.2,24.9,30.49,NE,35,0.0,-999.0,91,0.00,,,0.00,30,Wunderground v.1.15,2013-01-13 19:12:00,
2013-01-13 11:13:00,27.3,25.0,30.49,NE,35,0.0,-999.0,91,0.00,,,0.00,30,Wunderground v.1.15,2013-01-13 19:13:00,
2013-01-13 11:15:00,27.3,25.0,30.49,NE,35,0.0,-999.0,91,0.00,,,0.00,30,Wunderground v.1.15,2013-01-13 19:15:00,
2013-01-13 11:17:00,27.3,25.0,30.48,NE,35,0.0,-999.0,91,0.00,,,0.00,37,Wunderground v.1.15,2013-01-13 19:17:00,
2013-01-13 11:19:00,27.5,25.2,30.48,NE,35,0.0,-999.0,91,0.00,,,0.00,37,Wunderground v.1.15,2013-01-13 19:19:00,
2013-01-13 11:20:00,27.5,25.2,30.48,NE,35,0.0,-999.0,91,0.00,,,0.00,37,Wunderground v.1.15,2013-01-13 19:20:00,
2013-01-13 11:22:00,27.6,25.3,30.48,NE,35,0.0,-999.0,91,0.00,,,0.00,39,Wunderground v.1.15,2013-01-13 19:22:00,
2013-01-13 11:23:00,27.6,25.3,30.48,NE,35,0.0,-999.0,91,0.00,,,0.00,39,Wunderground v.1.15,2013-01-13 19:23:00,
2013-01-13 11:24:00,27.8,25.5,30.48,NE,35,0.0,-999.0,91,0.00,,,0.00,39,Wunderground v.1.15,2013-01-13 19:24:00,
2013-01-13 11:25:00,27.8,25.5,30.48,NE,35,0.0,-999.0,91,0.00,,,0.00,46,Wunderground v.1.15,2013-01-13 19:25:00,
2013-01-13 11:28:00,27.8,25.5,30.48,NE,35,0.0,-999.0,91,0.00,,,0.00,46,Wunderground v.1.15,2013-01-13 19:28:00,
2013-01-13 11:29:00,27.9,25.6,30.48,NE,35,0.0,-999.0,91,0.00,,,0.00,30,Wunderground v.1.15,2013-01-13 19:29:00,
2013-01-13 11:30:00,27.9,25.6,30.49,NE,35,0.0,-999.0,91,0.00,,,0.00,30,Wunderground v.1.15,2013-01-13 19:30:00,
2013-01-13 11:33:00,28.1,25.8,30.49,NE,35,0.0,-999.0,91,0.00,,,0.00,30,Wunderground v.1.15,2013-01-13 19:33:00,
2013-01-13 11:34:00,28.1,25.8,30.49,NE,35,0.0,-999.0,91,0.00,,,0.00,32,Wunderground v.1.15,2013-01-13 19:34:00,
2013-01-13 11:35:00,28.1,25.8,30.49,NE,35,0.0,-999.0,91,0.00,,,0.00,32,Wunderground v.1.15,2013-01-13 19:35:00,
2013-01-13 11:38:00,28.2,25.9,30.49,NE,35,0.0,-999.0,91,0.00,,,0.00,35,Wunderground v.1.15,2013-01-13 19:38:00,
2013-01-13 11:40:00,28.2,25.9,30.49,NE,35,0.0,-999.0,91,0.00,,,0.00,35,Wunderground v.1.15,2013-01-13 19:40:00,
2013-01-13 11:43:00,28.4,26.1,30.49,NE,35,0.0,-999.0,91,0.00,,,0.00,77,Wunderground v.1.15,2013-01-13 19:43:00,
2013-01-13 11:44:00,28.4,26.1,30.49,NE,35,0.0,-999.0,91,0.00,,,0.00,56,Wunderground v.1.15,2013-01-13 19:44:00,
2013-01-13 11:45:00,28.5,26.2,30.49,NE,35,0.0,-999.0,91,0.00,,,0.00,42,Wunderground v.1.15,2013-01-13 19:45:00,
2013-01-13 11:47:00,28.5,26.2,30.48,NE,35,0.0,-999.0,91,0.00,,,0.00,33,Wunderground v.1.15,2013-01-13 19:47:00,
2013-01-13 11:48:00,28.5,26.2,30.48,NE,35,0.0,-999.0,91,0.00,,,0.00,37,Wunderground v.1.15,2013-01-13 19:48:00,
2013-01-13 11:49:00,28.7,26.4,30.48,NE,35,0.0,-999.0,91,0.00,,,0.00,37,Wunderground v.1.15,2013-01-13 19:49:00,
2013-01-13 11:50:00,28.7,26.4,30.48,NE,35,0.0,-999.0,91,0.00,,,0.00,37,Wunderground v.1.15,2013-01-13 19:50:00,
2013-01-13 11:52:00,28.7,26.4,30.48,NE,35,0.0,-999.0,91,0.00,,,0.00,39,Wunderground v.1.15,2013-01-13 19:52:00,
2013-01-13 11:53:00,28.7,26.4,30.48,NE,35,0.0,-999.0,91,0.00,,,0.00,42,Wunderground v.1.15,2013-01-13 19:53:00,
2013-01-13 11:54:00,28.8,26.5,30.48,NE,35,0.0,-999.0,91,0.00,,,0.00,48,Wunderground v.1.15,2013-01-13 19:54:00,
2013-01-13 11:55:00,28.8,26.5,30.48,NE,35,0.0,-999.0,91,0.00,,,0.00,49,Wunderground v.1.15,2013-01-13 19:55:00,
2013-01-13 11:57:00,28.8,26.5,30.48,NE,35,0.0,-999.0,91,0.00,,,0.00,62,Wunderground v.1.15,2013-01-13 19:57:00,
2013-01-13 11:59:00,29.0,26.7,30.48,NE,35,0.0,-999.0,91,0.00,,,0.00,55,Wunderground v.1.15,2013-01-13 19:59:00,
2013-01-13 12:00:00,29.0,26.7,30.49,NE,35,0.0,-999.0,91,0.00,,,0.00,55,Wunderground v.1.15,2013-01-13 20:00:00,
2013-01-13 12:02:00,29.0,26.7,30.49,NE,35,0.0,-999.0,91,0.00,,,0.00,58,Wunderground v.1.15,2013-01-13 20:02:00,
2013-01-13 12:04:00,29.1,26.8,30.49,NE,35,0.0,-999.0,91,0.00,,,0.00,65,Wunderground v.1.15,2013-01-13 20:04:00,
2013-01-13 12:05:00,29.1,26.8,30.49,NE,35,0.0,-999.0,91,0.00,,,0.00,65,Wunderground v.1.15,2013-01-13 20:05:00,
2013-01-13 12:07:00,29.3,27.0,30.49,NE,35,0.0,-999.0,91,0.00,,,0.00,69,Wunderground v.1.15,2013-01-13 20:07:00,
2013-01-13 12:09:00,29.3,27.0,30.49,NE,35,0.0,-999.0,91,0.00,,,0.00,67,Wunderground v.1.15,2013-01-13 20:09:00,
2013-01-13 12:10:00,29.3,27.0,30.49,NE,35,0.0,-999.0,91,0.00,,,0.00,70,Wunderground v.1.15,2013-01-13 20:10:00,
2013-01-13 12:12:00,29.4,27.1,30.49,NE,35,0.0,-999.0,91,0.00,,,0.00,72,Wunderground v.1.15,2013-01-13 20:12:00,
2013-01-13 12:14:00,29.4,27.1,30.49,NE,35,0.0,-999.0,91,0.00,,,0.00,70,Wunderground v.1.15,2013-01-13 20:14:00,
2013-01-13 12:15:00,29.6,27.3,30.49,NE,35,0.0,-999.0,91,0.00,,,0.00,76,Wunderground v.1.15,2013-01-13 20:15:00,
2013-01-13 12:16:00,29.6,27.3,30.48,NE,35,0.0,-999.0,91,0.00,,,0.00,72,Wunderground v.1.15,2013-01-13 20:16:00,
2013-01-13 12:17:00,29.6,27.3,30.48,NE,35,0.0,-999.0,91,0.00,,,0.00,72,Wunderground v.1.15,2013-01-13 20:17:00,
2013-01-13 12:20:00,29.7,27.4,30.48,NE,35,0.0,-999.0,91,0.00,,,0.00,70,Wunderground v.1.15,2013-01-13 20:20:00,
2013-01-13 12:21:00,29.7,27.4,30.48,NE,35,0.0,-999.0,91,0.00,,,0.00,67,Wunderground v.1.15,2013-01-13 20:21:00,
2013-01-13 12:22:00,29.9,27.6,30.48,NE,35,0.0,-999.0,91,0.00,,,0.00,63,Wunderground v.1.15,2013-01-13 20:22:00,
2013-01-13 12:25:00,30.0,27.7,30.48,NE,35,0.0,-999.0,91,0.00,,,0.00,62,Wunderground v.1.15,2013-01-13 20:25:00,
2013-01-13 12:26:00,30.0,27.7,30.48,NE,35,0.0,-999.0,91,0.00,,,0.00,62,Wunderground v.1.15,2013-01-13 20:26:00,
2013-01-13 12:28:00,30.1,27.8,30.48,NE,35,0.0,-999.0,91,0.00,,,0.00,63,Wunderground v.1.15,2013-01-13 20:28:00,
2013-01-13 12:30:00,30.1,27.8,30.48,NE,35,0.0,-999.0,91,0.00,,,0.00,65,Wunderground v.1.15,2013-01-13 20:30:00,
2013-01-13 12:31:00,30.3,28.0,30.48,NE,35,0.0,-999.0,91,0.00,,,0.00,63,Wunderground v.1.15,2013-01-13 20:31:00,
2013-01-13 12:33:00,30.3,28.0,30.48,NE,35,0.0,-999.0,91,0.00,,,0.00,56,Wunderground v.1.15,2013-01-13 20:33:00,
2013-01-13 12:35:00,30.4,28.1,30.48,NE,35,0.0,-999.0,91,0.00,,,0.00,53,Wunderground v.1.15,2013-01-13 20:35:00,
2013-01-13 12:36:00,30.4,28.1,30.48,NE,35,0.0,-999.0,91,0.00,,,0.00,55,Wunderground v.1.15,2013-01-13 20:36:00,
2013-01-13 12:38:00,30.6,28.3,30.48,NE,35,0.0,-999.0,91,0.00,,,0.00,53,Wunderground v.1.15,2013-01-13 20:38:00,
2013-01-13 12:40:00,30.6,28.3,30.48,NE,35,0.0,-999.0,91,0.00,,,0.00,46,Wunderground v.1.15,2013-01-13 20:40:00,
2013-01-13 12:41:00,30.6,28.3,30.48,NE,35,0.0,-999.0,91,0.00,,,0.00,40,Wunderground v.1.15,2013-01-13 20:41:00,
2013-01-13 12:45:00,30.7,28.4,30.48,NE,35,0.0,-999.0,91,0.00,,,0.00,35,Wunderground v.1.15,2013-01-13 20:45:00,
2013-01-13 12:46:00,30.7,28.4,30.47,NE,35,0.0,-999.0,91,0.00,,,0.00,37,Wunderground v.1.15,2013-01-13 20:46:00,
2013-01-13 12:50:00,30.7,28.4,30.47,NE,35,0.0,-999.0,91,0.00,,,0.00,37,Wunderground v.1.15,2013-01-13 20:50:00,
2013-01-13 12:52:00,30.9,28.6,30.47,NE,35,0.0,-999.0,91,0.00,,,0.00,32,Wunderground v.1.15,2013-01-13 20:52:00,
2013-01-13 12:55:00,30.9,28.6,30.47,NE,35,0.0,-999.0,91,0.00,,,0.00,35,Wunderground v.1.15,2013-01-13 20:55:00,
2013-01-13 12:57:00,30.9,28.6,30.47,NE,35,0.0,-999.0,91,0.00,,,0.00,37,Wunderground v.1.15,2013-01-13 20:57:00,
2013-01-13 13:00:00,30.9,28.6,30.47,NE,35,1.0,-999.0,91,0.00,,,0.00,28,Wunderground v.1.15,2013-01-13 21:00:00,
2013-01-13 13:01:00,30.9,28.6,30.47,NE,35,2.0,-999.0,91,0.00,,,0.00,28,Wunderground v.1.15,2013-01-13 21:01:00,
2013-01-13 13:02:00,30.9,28.6,30.47,NE,35,0.0,-999.0,91,0.00,,,0.00,28,Wunderground v.1.15,2013-01-13 21:02:00,
2013-01-13 13:05:00,30.9,28.6,30.47,NE,35,0.0,-999.0,91,0.00,,,0.00,51,Wunderground v.1.15,2013-01-13 21:05:00,
2013-01-13 13:06:00,31.0,28.7,30.47,NE,35,0.0,-999.0,91,0.00,,,0.00,51,Wunderground v.1.15,2013-01-13 21:06:00,
2013-01-13 13:07:00,31.0,28.7,30.47,NE,35,0.0,-999.0,91,0.00,,,0.00,51,Wunderground v.1.15,2013-01-13 21:07:00,
2013-01-13 13:10:00,31.0,28.7,30.47,NE,35,0.0,-999.0,91,0.00,,,0.00,76,Wunderground v.1.15,2013-01-13 21:10:00,
2013-01-13 13:12:00,31.2,28.9,30.47,NE,35,0.0,-999.0,91,0.00,,,0.00,74,Wunderground v.1.15,2013-01-13 21:12:00,
2013-01-13 13:15:00,31.2,28.9,30.47,NE,35,0.0,-999.0,91,0.00,,,0.00,72,Wunderground v.1.15,2013-01-13 21:15:00,
2013-01-13 13:17:00,31.2,28.9,30.47,NE,35,0.0,-999.0,91,0.00,,,0.00,69,Wunderground v.1.15,2013-01-13 21:17:00,
2013-01-13 13:21:00,31.3,29.0,30.47,NE,35,0.0,-999.0,91,0.00,,,0.00,70,Wunderground v.1.15,2013-01-13 21:21:00,
2013-01-13 13:22:00,31.5,29.2,30.47,NE,35,0.0,-999.0,91,0.00,,,0.00,69,Wunderground v.1.15,2013-01-13 21:22:00,
2013-01-13 13:23:00,31.5,29.2,30.47,NE,35,0.0,-999.0,91,0.00,,,0.00,69,Wunderground v.1.15,2013-01-13 21:23:00,
2013-01-13 13:26:00,31.5,29.2,30.47,NE,35,0.0,-999.0,91,0.00,,,0.00,69,Wunderground v.1.15,2013-01-13 21:26:00,
2013-01-13 13:27:00,31.6,29.0,30.47,NE,35,0.0,-999.0,90,0.00,,,0.00,69,Wunderground v.1.15,2013-01-13 21:27:00,
2013-01-13 13:28:00,31.6,29.0,30.47,NE,35,0.0,-999.0,90,0.00,,,0.00,69,Wunderground v.1.15,2013-01-13 21:28:00,
2013-01-13 13:32:00,31.6,29.0,30.47,NE,35,0.0,-999.0,90,0.00,,,0.00,67,Wunderground v.1.15,2013-01-13 21:32:00,
2013-01-13 13:33:00,31.8,29.2,30.47,NE,35,0.0,-999.0,90,0.00,,,0.00,65,Wunderground v.1.15,2013-01-13 21:33:00,
2013-01-13 13:37:00,31.9,29.0,30.47,NE,35,0.0,-999.0,89,0.00,,,0.00,65,Wunderground v.1.15,2013-01-13 21:37:00,
2013-01-13 13:38:00,31.9,29.0,30.47,NE,35,0.0,-999.0,89,0.00,,,0.00,65,Wunderground v.1.15,2013-01-13 21:38:00,
2013-01-13 13:42:00,31.9,29.0,30.47,NE,35,0.0,-999.0,89,0.00,,,0.00,63,Wunderground v.1.15,2013-01-13 21:42:00,
2013-01-13 13:43:00,31.9,29.0,30.47,NE,35,0.0,-999.0,89,0.00,,,0.00,65,Wunderground v.1.15,2013-01-13 21:43:00,
2013-01-13 13:47:00,32.1,29.2,30.47,NE,35,0.0,-999.0,89,0.00,,,0.00,63,Wunderground v.1.15,2013-01-13 21:47:00,
2013-01-13 13:48:00,32.1,28.9,30.47,NE,35,0.0,-999.0,88,0.00,,,0.00,65,Wunderground v.1.15,2013-01-13 21:48:00,
2013-01-13 13:49:00,32.1,28.9,30.47,NE,35,0.0,-999.0,88,0.00,,,0.00,65,Wunderground v.1.15,2013-01-13 21:49:00,
2013-01-13 13:52:00,32.2,29.0,30.47,NE,35,0.0,-999.0,88,0.00,,,0.00,65,Wunderground v.1.15,2013-01-13 21:52:00,
2013-01-13 13:54:00,32.2,29.0,30.47,NE,35,0.0,-999.0,88,0.00,,,0.00,67,Wunderground v.1.15,2013-01-13 21:54:00,
2013-01-13 13:58:00,32.4,29.2,30.47,NE,35,0.0,-999.0,88,0.00,,,0.00,62,Wunderground v.1.15,2013-01-13 21:58:00,
2013-01-13 13:59:00,32.4,29.2,30.47,NE,35,0.0,-999.0,88,0.00,,,0.00,63,Wunderground v.1.15,2013-01-13 21:59:00,
2013-01-13 14:03:00,32.4,29.2,30.47,NE,35,0.0,-999.0,88,0.00,,,0.00,72,Wunderground v.1.15,2013-01-13 22:03:00,
2013-01-13 14:04:00,32.4,29.2,30.47,NE,35,0.0,-999.0,88,0.00,,,0.00,70,Wunderground v.1.15,2013-01-13 22:04:00,
2013-01-13 14:08:00,32.4,29.0,30.47,NE,36,0.0,-999.0,87,0.00,,,0.00,65,Wunderground v.1.15,2013-01-13 22:08:00,
2013-01-13 14:09:00,32.4,29.0,30.47,NE,35,0.0,-999.0,87,0.00,,,0.00,93,Wunderground v.1.15,2013-01-13 22:09:00,
2013-01-13 14:13:00,32.4,28.1,30.47,NE,35,0.0,-999.0,84,0.00,,,0.00,65,Wunderground v.1.15,2013-01-13 22:13:00,
2013-01-13 14:14:00,32.4,28.1,30.47,NE,36,0.0,-999.0,84,0.00,,,0.00,63,Wunderground v.1.15,2013-01-13 22:14:00,
2013-01-13 14:15:00,32.4,28.1,30.47,NE,36,0.0,-999.0,84,0.00,,,0.00,62,Wunderground v.1.15,2013-01-13 22:15:00,
2013-01-13 14:18:00,32.5,28.2,30.47,NE,36,0.0,-999.0,84,0.00,,,0.00,60,Wunderground v.1.15,2013-01-13 22:18:00,
2013-01-13 14:19:00,32.5,28.2,30.47,NE,36,0.0,-999.0,84,0.00,,,0.00,58,Wunderground v.1.15,2013-01-13 22:19:00,
2013-01-13 14:21:00,32.5,28.2,30.47,NE,36,0.0,-999.0,84,0.00,,,0.00,60,Wunderground v.1.15,2013-01-13 22:21:00,
2013-01-13 14:23:00,32.5,28.2,30.47,NE,36,0.0,-999.0,84,0.00,,,0.00,58,Wunderground v.1.15,2013-01-13 22:23:00,
2013-01-13 14:24:00,32.5,28.5,30.47,NE,36,0.0,-999.0,85,0.00,,,0.00,60,Wunderground v.1.15,2013-01-13 22:24:00,
2013-01-13 14:26:00,32.5,28.2,30.47,NE,36,0.0,-999.0,84,0.00,,,0.00,58,Wunderground v.1.15,2013-01-13 22:26:00,
2013-01-13 14:29:00,32.7,28.4,30.47,NE,36,0.0,-999.0,84,0.00,,,0.00,58,Wunderground v.1.15,2013-01-13 22:29:00,
2013-01-13 14:30:00,32.7,28.4,30.47,NE,36,0.0,-999.0,84,0.00,,,0.00,60,Wunderground v.1.15,2013-01-13 22:30:00,
2013-01-13 14:31:00,32.7,28.4,30.47,NE,36,0.0,-999.0,84,0.00,,,0.00,60,Wunderground v.1.15,2013-01-13 22:31:00,
2013-01-13 14:34:00,32.7,28.4,30.47,NE,36,0.0,-999.0,84,0.00,,,0.00,58,Wunderground v.1.15,2013-01-13 22:34:00,
2013-01-13 14:35:00,32.7,28.4,30.47,NE,36,0.0,-999.0,84,0.00,,,0.00,56,Wunderground v.1.15,2013-01-13 22:35:00,
2013-01-13 14:36:00,32.7,28.1,30.47,NE,36,0.0,-999.0,83,0.00,,,0.00,55,Wunderground v.1.15,2013-01-13 22:36:00,
2013-01-13 14:39:00,32.7,28.1,30.47,NE,36,0.0,-999.0,83,0.00,,,0.00,53,Wunderground v.1.15,2013-01-13 22:39:00,
2013-01-13 14:40:00,32.7,28.1,30.47,NE,36,0.0,-999.0,83,0.00,,,0.00,51,Wunderground v.1.15,2013-01-13 22:40:00,
2013-01-13 14:41:00,32.7,28.1,30.47,NE,36,0.0,-999.0,83,0.00,,,0.00,53,Wunderground v.1.15,2013-01-13 22:41:00,
2013-01-13 14:44:00,32.8,28.2,30.47,NE,36,1.0,-999.0,83,0.00,,,0.00,53,Wunderground v.1.15,2013-01-13 22:44:00,
2013-01-13 14:45:00,32.8,28.2,30.47,NE,36,0.0,-999.0,83,0.00,,,0.00,51,Wunderground v.1.15,2013-01-13 22:45:00,
2013-01-13 14:46:00,32.8,28.2,30.47,NE,36,0.0,-999.0,83,0.00,,,0.00,49,Wunderground v.1.15,2013-01-13 22:46:00,
2013-01-13 14:49:00,32.8,28.5,30.47,NE,36,0.0,-999.0,84,0.00,,,0.00,49,Wunderground v.1.15,2013-01-13 22:49:00,
2013-01-13 14:50:00,32.8,28.5,30.47,NE,36,0.0,-999.0,84,0.00,,,0.00,49,Wunderground v.1.15,2013-01-13 22:50:00,
2013-01-13 14:52:00,33.0,28.7,30.47,NE,36,0.0,-999.0,84,0.00,,,0.00,48,Wunderground v.1.15,2013-01-13 22:52:00,
2013-01-13 14:54:00,33.0,28.7,30.47,NE,36,0.0,-999.0,84,0.00,,,0.00,48,Wunderground v.1.15,2013-01-13 22:54:00,
2013-01-13 14:55:00,33.0,28.7,30.47,NE,36,0.0,-999.0,84,0.00,,,0.00,48,Wunderground v.1.15,2013-01-13 22:55:00,
2013-01-13 14:57:00,33.0,28.7,30.47,NE,36,0.0,-999.0,84,0.00,,,0.00,48,Wunderground v.1.15,2013-01-13 22:57:00,
2013-01-13 15:00:00,33.0,29.0,30.47,NE,36,0.0,-999.0,85,0.00,,,0.00,44,Wunderground v.1.15,2013-01-13 23:00:00,
2013-01-13 15:02:00,33.0,29.0,30.46,NE,36,0.0,-999.0,85,0.00,,,0.01,44,Wunderground v.1.15,2013-01-13 23:02:00,
2013-01-13 15:05:00,33.1,29.1,30.46,NE,36,0.0,-999.0,85,0.00,,,0.01,46,Wunderground v.1.15,2013-01-13 23:05:00,
2013-01-13 15:07:00,33.1,29.1,30.46,NE,36,0.0,-999.0,85,0.00,,,0.01,46,Wunderground v.1.15,2013-01-13 23:07:00,
2013-01-13 15:10:00,33.1,29.1,30.46,NE,36,0.0,-999.0,85,0.00,,,0.01,44,Wunderground v.1.15,2013-01-13 23:10:00,
2013-01-13 15:11:00,33.1,29.1,30.46,NE,36,0.0,-999.0,85,0.00,,,0.01,42,Wunderground v.1.15,2013-01-13 23:11:00,
2013-01-13 15:12:00,33.1,29.1,30.46,NE,36,0.0,-999.0,85,0.00,,,0.01,42,Wunderground v.1.15,2013-01-13 23:12:00,
2013-01-13 15:15:00,33.1,29.1,30.46,NE,36,0.0,-999.0,85,0.00,,,0.01,39,Wunderground v.1.15,2013-01-13 23:15:00,
2013-01-13 15:16:00,33.1,29.1,30.46,NE,36,0.0,-999.0,85,0.00,,,0.01,39,Wunderground v.1.15,2013-01-13 23:16:00,
2013-01-13 15:17:00,33.1,29.1,30.46,NE,36,0.0,-999.0,85,0.00,,,0.01,37,Wunderground v.1.15,2013-01-13 23:17:00,
2013-01-13 15:21:00,33.1,29.4,30.46,NE,36,0.0,-999.0,86,0.00,,,0.01,33,Wunderground v.1.15,2013-01-13 23:21:00,
2013-01-13 15:22:00,33.1,29.1,30.46,NE,36,0.0,-999.0,85,0.00,,,0.01,32,Wunderground v.1.15,2013-01-13 23:22:00,
2013-01-13 15:26:00,33.1,29.1,30.46,NE,36,0.0,-999.0,85,0.00,,,0.01,30,Wunderground v.1.15,2013-01-13 23:26:00,
2013-01-13 15:27:00,33.1,29.1,30.46,NE,36,0.0,-999.0,85,0.00,,,0.01,30,Wunderground v.1.15,2013-01-13 23:27:00,
2013-01-13 15:31:00,33.0,29.0,30.46,NE,36,0.0,-999.0,85,0.00,,,0.01,26,Wunderground v.1.15,2013-01-13 23:31:00,
2013-01-13 15:32:00,33.0,29.0,30.46,NE,36,0.0,-999.0,85,0.00,,,0.01,26,Wunderground v.1.15,2013-01-13 23:32:00,
2013-01-13 15:33:00,33.0,29.0,30.46,NE,36,0.0,-999.0,85,0.00,,,0.01,26,Wunderground v.1.15,2013-01-13 23:33:00,
2013-01-13 15:36:00,33.0,29.0,30.46,NE,36,0.0,-999.0,85,0.00,,,0.01,23,Wunderground v.1.15,2013-01-13 23:36:00,
2013-01-13 15:37:00,33.0,29.0,30.46,NE,36,0.0,-999.0,85,0.00,,,0.01,23,Wunderground v.1.15,2013-01-13 23:37:00,
2013-01-13 15:38:00,33.0,29.0,30.46,NE,36,0.0,-999.0,85,0.00,,,0.01,23,Wunderground v.1.15,2013-01-13 23:38:00,
2013-01-13 15:41:00,33.0,29.0,30.46,NE,36,0.0,-999.0,85,0.00,,,0.01,19,Wunderground v.1.15,2013-01-13 23:41:00,
2013-01-13 15:42:00,33.0,29.0,30.46,NE,36,0.0,-999.0,85,0.00,,,0.01,19,Wunderground v.1.15,2013-01-13 23:42:00,
2013-01-13 15:44:00,33.0,29.0,30.46,NE,36,0.0,-999.0,85,0.00,,,0.01,18,Wunderground v.1.15,2013-01-13 23:44:00,
2013-01-13 15:47:00,32.8,28.8,30.47,NE,36,0.0,-999.0,85,0.00,,,0.01,14,Wunderground v.1.15,2013-01-13 23:47:00,
2013-01-13 15:49:00,32.8,28.8,30.47,NE,36,0.0,-999.0,85,0.00,,,0.01,14,Wunderground v.1.15,2013-01-13 23:49:00,
2013-01-13 15:53:00,32.7,28.7,30.47,NE,36,0.0,-999.0,85,0.00,,,0.01,14,Wunderground v.1.15,2013-01-13 23:53:00,
2013-01-13 15:54:00,32.7,28.7,30.47,NE,36,0.0,-999.0,85,0.00,,,0.01,14,Wunderground v.1.15,2013-01-13 23:54:00,
2013-01-13 15:58:00,32.5,28.5,30.47,NE,36,0.0,-999.0,85,0.00,,,0.01,14,Wunderground v.1.15,2013-01-13 23:58:00,
2013-01-13 15:59:00,32.5,28.5,30.47,NE,36,0.0,-999.0,85,0.00,,,0.01,11,Wunderground v.1.15,2013-01-13 23:59:00,
2013-01-13 16:00:00,32.5,28.5,30.47,NE,36,0.0,-999.0,85,0.00,,,0.01,11,Wunderground v.1.15,2013-01-14 00:00:00,
2013-01-13 16:03:00,32.4,28.4,30.47,NE,36,0.0,-999.0,85,0.00,,,0.01,9,Wunderground v.1.15,2013-01-14 00:03:00,
2013-01-13 16:04:00,32.4,28.1,30.47,NE,36,0.0,-999.0,84,0.00,,,0.01,9,Wunderground v.1.15,2013-01-14 00:04:00,
2013-01-13 16:05:00,32.4,28.1,30.47,NE,36,0.0,-999.0,84,0.00,,,0.01,9,Wunderground v.1.15,2013-01-14 00:05:00,
2013-01-13 16:09:00,32.2,27.9,30.47,NE,36,0.0,-999.0,84,0.00,,,0.01,9,Wunderground v.1.15,2013-01-14 00:09:00,
2013-01-13 16:10:00,32.2,27.9,30.47,NE,36,0.0,-999.0,84,0.00,,,0.01,9,Wunderground v.1.15,2013-01-14 00:10:00,
2013-01-13 16:11:00,32.2,27.9,30.47,NE,36,0.0,-999.0,84,0.00,,,0.01,9,Wunderground v.1.15,2013-01-14 00:11:00,
2013-01-13 16:14:00,32.1,27.5,30.47,NE,36,0.0,-999.0,83,0.00,,,0.01,7,Wunderground v.1.15,2013-01-14 00:14:00,
2013-01-13 16:15:00,32.1,27.5,30.47,NE,36,0.0,-999.0,83,0.00,,,0.01,7,Wunderground v.1.15,2013-01-14 00:15:00,
2013-01-13 16:16:00,31.9,27.3,30.47,NE,36,0.0,-999.0,83,0.00,,,0.01,5,Wunderground v.1.15,2013-01-14 00:16:00,
2013-01-13 16:19:00,31.8,27.2,30.47,NE,36,0.0,-999.0,83,0.00,,,0.01,5,Wunderground v.1.15,2013-01-14 00:19:00,
2013-01-13 16:20:00,31.8,27.2,30.47,NE,36,0.0,-999.0,83,0.00,,,0.01,0,Wunderground v.1.15,2013-01-14 00:20:00,
2013-01-13 16:21:00,31.8,27.5,30.47,NE,36,0.0,-999.0,84,0.00,,,0.01,0,Wunderground v.1.15,2013-01-14 00:21:00,
2013-01-13 16:25:00,31.8,27.5,30.47,NE,36,0.0,-999.0,84,0.00,,,0.01,0,Wunderground v.1.15,2013-01-14 00:25:00,
2013-01-13 16:26:00,31.6,27.3,30.47,NE,36,0.0,-999.0,84,0.00,,,0.01,0,Wunderground v.1.15,2013-01-14 00:26:00,
2013-01-13 16:30:00,31.6,27.3,30.47,NE,36,0.0,-999.0,84,0.00,,,0.01,0,Wunderground v.1.15,2013-01-14 00:30:00,
2013-01-13 16:31:00,31.5,27.2,30.47,NE,36,0.0,-999.0,84,0.00,,,0.01,0,Wunderground v.1.15,2013-01-14 00:31:00,
2013-01-13 16:33:00,31.5,27.2,30.47,NE,36,0.0,-999.0,84,0.00,,,0.01,0,Wunderground v.1.15,2013-01-14 00:33:00,
2013-01-13 16:35:00,31.5,27.2,30.47,NE,36,0.0,-999.0,84,0.00,,,0.01,0,Wunderground v.1.15,2013-01-14 00:35:00,
2013-01-13 16:36:00,31.3,27.0,30.47,NE,36,0.0,-999.0,84,0.00,,,0.01,0,Wunderground v.1.15,2013-01-14 00:36:00,
2013-01-13 16:38:00,31.3,27.0,30.47,NE,36,0.0,-999.0,84,0.00,,,0.01,0,Wunderground v.1.15,2013-01-14 00:38:00,
2013-01-13 16:40:00,31.3,27.0,30.47,NE,36,0.0,-999.0,84,0.00,,,0.01,0,Wunderground v.1.15,2013-01-14 00:40:00,
2013-01-13 16:41:00,31.3,27.0,30.47,NE,36,0.0,-999.0,84,0.00,,,0.01,0,Wunderground v.1.15,2013-01-14 00:41:00,
2013-01-13 16:44:00,31.2,26.9,30.47,NE,36,0.0,-999.0,84,0.00,,,0.01,0,Wunderground v.1.15,2013-01-14 00:44:00,
2013-01-13 16:45:00,31.2,26.9,30.47,NE,36,0.0,-999.0,84,0.00,,,0.01,0,Wunderground v.1.15,2013-01-14 00:45:00,
2013-01-13 16:46:00,31.0,26.7,30.47,NE,36,0.0,-999.0,84,0.00,,,0.01,0,Wunderground v.1.15,2013-01-14 00:46:00,
2013-01-13 16:49:00,31.0,27.0,30.47,NE,36,0.0,-999.0,85,0.00,,,0.01,0,Wunderground v.1.15,2013-01-14 00:49:00,
2013-01-13 16:50:00,30.9,26.9,30.47,NE,36,0.0,-999.0,85,0.00,,,0.01,0,Wunderground v.1.15,2013-01-14 00:50:00,
2013-01-13 16:52:00,30.9,26.9,30.47,NE,36,0.0,-999.0,85,0.00,,,0.01,0,Wunderground v.1.15,2013-01-14 00:52:00,
2013-01-13 16:54:00,30.9,26.9,30.47,NE,36,0.0,-999.0,85,0.00,,,0.01,0,Wunderground v.1.15,2013-01-14 00:54:00,
2013-01-13 16:56:00,30.7,26.7,30.47,NE,36,0.0,-999.0,85,0.00,,,0.01,0,Wunderground v.1.15,2013-01-14 00:56:00,
2013-01-13 16:57:00,30.7,26.7,30.47,NE,36,0.0,-999.0,85,0.00,,,0.01,0,Wunderground v.1.15,2013-01-14 00:57:00,
2013-01-13 16:59:00,30.6,26.6,30.47,NE,36,0.0,-999.0,85,0.00,,,0.01,0,Wunderground v.1.15,2013-01-14 00:59:00,
2013-01-13 17:01:00,30.6,26.9,30.48,NE,36,0.0,-999.0,86,0.00,,,0.01,0,Wunderground v.1.15,2013-01-14 01:01:00,
2013-01-13 17:02:00,30.6,26.9,30.48,NE,36,0.0,-999.0,86,0.00,,,0.01,0,Wunderground v.1.15,2013-01-14 01:02:00,
2013-01-13 17:05:00,30.4,26.7,30.48,NE,36,0.0,-999.0,86,0.00,,,0.01,0,Wunderground v.1.15,2013-01-14 01:05:00,
2013-01-13 17:06:00,30.4,26.7,30.48,NE,36,0.0,-999.0,86,0.00,,,0.01,0,Wunderground v.1.15,2013-01-14 01:06:00,
2013-01-13 17:07:00,30.4,26.7,30.48,NE,36,0.0,-999.0,86,0.00,,,0.01,0,Wunderground v.1.15,2013-01-14 01:07:00,
2013-01-13 17:10:00,30.3,26.6,30.48,NE,36,0.0,-999.0,86,0.00,,,0.01,0,Wunderground v.1.15,2013-01-14 01:10:00,
2013-01-13 17:12:00,30.3,26.9,30.48,NE,36,0.0,-999.0,87,0.00,,,0.01,0,Wunderground v.1.15,2013-01-14 01:12:00,
2013-01-13 17:15:00,30.1,26.7,30.48,NE,36,0.0,-999.0,87,0.00,,,0.01,0,Wunderground v.1.15,2013-01-14 01:15:00,
2013-01-13 17:17:00,30.1,26.7,30.48,NE,36,0.0,-999.0,87,0.00,,,0.01,0,Wunderground v.1.15,2013-01-14 01:17:00,
2013-01-13 17:18:00,30.1,26.7,30.48,NE,36,0.0,-999.0,87,0.00,,,0.01,0,Wunderground v.1.15,2013-01-14 01:18:00,
2013-01-13 17:20:00,30.0,26.6,30.48,NE,36,0.0,-999.0,87,0.00,,,0.01,0,Wunderground v.1.15,2013-01-14 01:20:00,
2013-01-13 17:22:00,30.0,26.6,30.48,NE,36,0.0,-999.0,87,0.00,,,0.01,0,Wunderground v.1.15,2013-01-14 01:22:00,
2013-01-13 17:23:00,30.0,26.6,30.48,NE,36,0.0,-999.0,87,0.00,,,0.01,0,Wunderground v.1.15,2013-01-14 01:23:00,
2013-01-13 17:25:00,30.0,26.6,30.48,NE,36,0.0,-999.0,87,0.00,,,0.01,0,Wunderground v.1.15,2013-01-14 01:25:00,
2013-01-13 17:27:00,30.0,26.9,30.48,NE,36,0.0,-999.0,88,0.00,,,0.01,0,Wunderground v.1.15,2013-01-14 01:27:00,
2013-01-13 17:28:00,29.9,26.8,30.48,NE,36,0.0,-999.0,88,0.00,,,0.01,0,Wunderground v.1.15,2013-01-14 01:28:00,
2013-01-13 17:29:00,29.9,26.8,30.48,NE,36,0.0,-999.0,88,0.00,,,0.01,0,Wunderground v.1.15,2013-01-14 01:29:00,
2013-01-13 17:30:00,29.9,26.8,30.48,NE,36,0.0,-999.0,88,0.00,,,0.01,0,Wunderground v.1.15,2013-01-14 01:30:00,
2013-01-13 17:32:00,29.9,26.8,30.48,NE,36,0.0,-999.0,88,0.00,,,0.01,0,Wunderground v.1.15,2013-01-14 01:32:00,
2013-01-13 17:33:00,29.9,26.8,30.48,NE,36,0.0,-999.0,88,0.00,,,0.01,0,Wunderground v.1.15,2013-01-14 01:33:00,
2013-01-13 17:34:00,29.9,26.8,30.48,NE,36,0.0,-999.0,88,0.00,,,0.01,0,Wunderground v.1.15,2013-01-14 01:34:00,
2013-01-13 17:35:00,29.9,27.1,30.48,NE,36,0.0,-999.0,89,0.00,,,0.01,0,Wunderground v.1.15,2013-01-14 01:35:00,
2013-01-13 17:37:00,29.9,27.1,30.48,NE,36,0.0,-999.0,89,0.00,,,0.01,0,Wunderground v.1.15,2013-01-14 01:37:00,
2013-01-13 17:38:00,29.9,27.1,30.48,NE,36,0.0,-999.0,89,0.00,,,0.01,0,Wunderground v.1.15,2013-01-14 01:38:00,
2013-01-13 17:39:00,29.9,27.1,30.48,NE,36,0.0,-999.0,89,0.00,,,0.01,0,Wunderground v.1.15,2013-01-14 01:39:00,
2013-01-13 17:41:00,29.9,27.1,30.48,NE,36,0.0,-999.0,89,0.00,,,0.01,0,Wunderground v.1.15,2013-01-14 01:41:00,
2013-01-13 17:42:00,29.9,27.1,30.48,NE,36,0.0,-999.0,89,0.00,,,0.01,0,Wunderground v.1.15,2013-01-14 01:42:00,
2013-01-13 17:43:00,29.9,27.1,30.48,NE,36,0.0,-999.0,89,0.00,,,0.01,0,Wunderground v.1.15,2013-01-14 01:43:00,
2013-01-13 17:44:00,29.9,27.1,30.48,NE,36,0.0,-999.0,89,0.00,,,0.01,0,Wunderground v.1.15,2013-01-14 01:44:00,
2013-01-13 17:46:00,29.9,27.3,30.48,NE,36,0.0,-999.0,90,0.00,,,0.01,0,Wunderground v.1.15,2013-01-14 01:46:00,
2013-01-13 17:47:00,29.9,27.3,30.48,NE,36,0.0,-999.0,90,0.00,,,0.01,0,Wunderground v.1.15,2013-01-14 01:47:00,
2013-01-13 17:49:00,29.9,27.3,30.48,NE,36,0.0,-999.0,90,0.00,,,0.01,0,Wunderground v.1.15,2013-01-14 01:49:00,
2013-01-13 17:52:00,29.9,27.3,30.48,NE,36,0.0,-999.0,90,0.00,,,0.01,0,Wunderground v.1.15,2013-01-14 01:52:00,
2013-01-13 17:53:00,29.9,27.3,30.48,NE,36,0.0,-999.0,90,0.00,,,0.01,0,Wunderground v.1.15,2013-01-14 01:53:00,
2013-01-13 17:54:00,29.9,27.3,30.48,NE,36,0.0,-999.0,90,0.00,,,0.01,0,Wunderground v.1.15,2013-01-14 01:54:00,
2013-01-13 17:57:00,29.9,27.3,30.48,NE,36,0.0,-999.0,90,0.00,,,0.01,0,Wunderground v.1.15,2013-01-14 01:57:00,
2013-01-13 17:58:00,29.9,27.6,30.48,NE,36,0.0,-999.0,91,0.00,,,0.01,0,Wunderground v.1.15,2013-01-14 01:58:00,
2013-01-13 17:59:00,29.9,27.6,30.48,NE,36,0.0,-999.0,91,0.00,,,0.01,0,Wunderground v.1.15,2013-01-14 01:59:00,
2013-01-13 18:00:00,29.9,27.6,30.48,NNE,29,0.0,-999.0,91,0.00,,,0.01,0,Wunderground v.1.15,2013-01-14 02:00:00,
2013-01-13 18:02:00,29.9,27.6,30.48,NE,36,0.0,-999.0,91,0.00,,,0.01,0,Wunderground v.1.15,2013-01-14 02:02:00,
2013-01-13 18:03:00,29.7,27.4,30.48,NE,36,0.0,-999.0,91,0.00,,,0.01,0,Wunderground v.1.15,2013-01-14 02:03:00,
2013-01-13 18:04:00,29.7,27.4,30.48,NE,36,0.0,-999.0,91,0.00,,,0.01,0,Wunderground v.1.15,2013-01-14 02:04:00,
2013-01-13 18:05:00,29.7,27.4,30.48,NE,36,0.0,-999.0,91,0.00,,,0.01,0,Wunderground v.1.15,2013-01-14 02:05:00,
2013-01-13 18:07:00,29.7,27.4,30.48,NE,36,0.0,-999.0,91,0.00,,,0.01,0,Wunderground v.1.15,2013-01-14 02:07:00,
2013-01-13 18:08:00,29.7,27.4,30.48,NE,36,0.0,-999.0,91,0.00,,,0.01,0,Wunderground v.1.15,2013-01-14 02:08:00,
2013-01-13 18:09:00,29.7,27.4,30.48,NE,36,0.0,-999.0,91,0.00,,,0.01,0,Wunderground v.1.15,2013-01-14 02:09:00,
2013-01-13 18:10:00,29.7,27.4,30.48,NE,36,0.0,-999.0,91,0.00,,,0.01,0,Wunderground v.1.15,2013-01-14 02:10:00,
2013-01-13 18:12:00,29.7,27.4,30.48,NE,36,0.0,-999.0,91,0.00,,,0.01,0,Wunderground v.1.15,2013-01-14 02:12:00,
2013-01-13 18:13:00,29.7,27.4,30.48,NE,36,0.0,-999.0,91,0.00,,,0.01,0,Wunderground v.1.15,2013-01-14 02:13:00,
2013-01-13 18:14:00,29.7,27.4,30.48,NE,36,0.0,-999.0,91,0.00,,,0.01,0,Wunderground v.1.15,2013-01-14 02:14:00,
2013-01-13 18:15:00,29.7,27.4,30.48,NE,36,0.0,-999.0,91,0.00,,,0.01,0,Wunderground v.1.15,2013-01-14 02:15:00,
2013-01-13 18:17:00,29.7,27.4,30.47,NE,36,0.0,-999.0,91,0.00,,,0.01,0,Wunderground v.1.15,2013-01-14 02:17:00,
2013-01-13 18:18:00,29.7,27.4,30.47,NE,36,0.0,-999.0,91,0.00,,,0.01,0,Wunderground v.1.15,2013-01-14 02:18:00,
2013-01-13 18:19:00,29.7,27.4,30.47,NE,36,0.0,-999.0,91,0.00,,,0.01,0,Wunderground v.1.15,2013-01-14 02:19:00,
2013-01-13 18:21:00,29.7,27.4,30.47,NE,36,0.0,-999.0,91,0.00,,,0.01,0,Wunderground v.1.15,2013-01-14 02:21:00,
2013-01-13 18:22:00,29.7,27.4,30.47,NE,36,0.0,-999.0,91,0.00,,,0.01,0,Wunderground v.1.15,2013-01-14 02:22:00,
2013-01-13 18:23:00,29.7,27.4,30.47,NE,36,0.0,-999.0,91,0.00,,,0.01,0,Wunderground v.1.15,2013-01-14 02:23:00,
2013-01-13 18:24:00,29.7,27.4,30.47,NE,36,0.0,-999.0,91,0.00,,,0.01,0,Wunderground v.1.15,2013-01-14 02:24:00,
2013-01-13 18:26:00,29.7,27.4,30.47,NE,36,0.0,-999.0,91,0.00,,,0.01,0,Wunderground v.1.15,2013-01-14 02:26:00,
2013-01-13 18:27:00,29.7,27.4,30.47,NE,36,0.0,-999.0,91,0.00,,,0.01,0,Wunderground v.1.15,2013-01-14 02:27:00,
2013-01-13 18:29:00,29.7,27.4,30.47,NE,36,0.0,-999.0,91,0.00,,,0.01,0,Wunderground v.1.15,2013-01-14 02:29:00,
2013-01-13 18:30:00,29.7,27.4,30.47,NE,36,0.0,-999.0,91,0.00,,,0.01,0,Wunderground v.1.15,2013-01-14 02:30:00,
2013-01-13 18:31:00,29.7,27.4,30.47,NE,36,0.0,-999.0,91,0.00,,,0.01,0,Wunderground v.1.15,2013-01-14 02:31:00,
2013-01-13 18:33:00,29.9,27.6,30.47,NE,36,0.0,-999.0,91,0.00,,,0.01,0,Wunderground v.1.15,2013-01-14 02:33:00,
2013-01-13 18:34:00,29.9,27.6,30.47,NE,36,0.0,-999.0,91,0.00,,,0.01,0,Wunderground v.1.15,2013-01-14 02:34:00,
2013-01-13 18:35:00,29.9,27.6,30.47,NE,36,0.0,-999.0,91,0.00,,,0.01,0,Wunderground v.1.15,2013-01-14 02:35:00,
2013-01-13 18:36:00,29.9,27.6,30.47,NE,36,0.0,-999.0,91,0.00,,,0.01,0,Wunderground v.1.15,2013-01-14 02:36:00,
2013-01-13 18:38:00,29.9,27.6,30.47,NE,36,0.0,-999.0,91,0.00,,,0.01,0,Wunderground v.1.15,2013-01-14 02:38:00,
2013-01-13 18:39:00,29.9,27.6,30.47,NE,36,0.0,-999.0,91,0.00,,,0.01,0,Wunderground v.1.15,2013-01-14 02:39:00,
2013-01-13 18:40:00,29.9,27.6,30.47,NE,36,0.0,-999.0,91,0.00,,,0.01,0,Wunderground v.1.15,2013-01-14 02:40:00,
2013-01-13 18:42:00,29.9,27.6,30.47,NE,36,0.0,-999.0,91,0.00,,,0.01,0,Wunderground v.1.15,2013-01-14 02:42:00,
2013-01-13 18:43:00,29.9,27.6,30.47,NE,36,0.0,-999.0,91,0.00,,,0.01,0,Wunderground v.1.15,2013-01-14 02:43:00,
2013-01-13 18:45:00,29.9,27.6,30.47,NE,36,0.0,-999.0,91,0.00,,,0.01,0,Wunderground v.1.15,2013-01-14 02:45:00,
2013-01-13 18:47:00,29.9,27.6,30.46,NE,36,0.0,-999.0,91,0.00,,,0.01,0,Wunderground v.1.15,2013-01-14 02:47:00,
2013-01-13 18:48:00,29.9,27.6,30.46,NE,36,0.0,-999.0,91,0.00,,,0.01,0,Wunderground v.1.15,2013-01-14 02:48:00,
2013-01-13 18:50:00,29.9,27.6,30.46,NE,36,0.0,-999.0,91,0.00,,,0.01,0,Wunderground v.1.15,2013-01-14 02:50:00,
2013-01-13 18:51:00,29.9,27.6,30.46,NE,36,0.0,-999.0,91,0.00,,,0.01,0,Wunderground v.1.15,2013-01-14 02:51:00,
2013-01-13 18:52:00,29.9,27.6,30.46,NE,36,0.0,-999.0,91,0.00,,,0.01,0,Wunderground v.1.15,2013-01-14 02:52:00,
2013-01-13 18:54:00,30.0,27.7,30.46,NE,36,0.0,-999.0,91,0.00,,,0.01,0,Wunderground v.1.15,2013-01-14 02:54:00,
2013-01-13 18:55:00,30.0,27.7,30.46,NE,36,0.0,-999.0,91,0.00,,,0.01,0,Wunderground v.1.15,2013-01-14 02:55:00,
2013-01-13 18:56:00,30.0,27.7,30.46,NE,36,0.0,-999.0,91,0.00,,,0.01,0,Wunderground v.1.15,2013-01-14 02:56:00,
2013-01-13 18:57:00,30.0,27.7,30.46,NE,36,0.0,-999.0,91,0.00,,,0.01,0,Wunderground v.1.15,2013-01-14 02:57:00,
2013-01-13 19:00:00,30.0,27.7,30.46,NE,36,0.0,-999.0,91,0.00,,,0.01,0,Wunderground v.1.15,2013-01-14 03:00:00,
2013-01-13 19:01:00,30.0,27.7,30.47,NE,36,0.0,-999.0,91,0.00,,,0.01,0,Wunderground v.1.15,2013-01-14 03:01:00,
2013-01-13 19:02:00,30.0,27.7,30.47,NE,36,0.0,-999.0,91,0.00,,,0.01,0,Wunderground v.1.15,2013-01-14 03:02:00,
2013-01-13 19:05:00,30.0,27.7,30.47,NE,36,0.0,-999.0,91,0.00,,,0.01,0,Wunderground v.1.15,2013-01-14 03:05:00,
2013-01-13 19:06:00,30.0,27.7,30.47,NE,36,0.0,-999.0,91,0.00,,,0.01,0,Wunderground v.1.15,2013-01-14 03:06:00,
2013-01-13 19:07:00,30.0,27.7,30.47,NE,36,0.0,-999.0,91,0.00,,,0.01,0,Wunderground v.1.15,2013-01-14 03:07:00,
2013-01-13 19:08:00,30.0,27.7,30.47,NE,36,0.0,-999.0,91,0.00,,,0.01,0,Wunderground v.1.15,2013-01-14 03:08:00,
2013-01-13 19:10:00,30.0,27.7,30.47,NE,36,0.0,-999.0,91,0.00,,,0.01,0,Wunderground v.1.15,2013-01-14 03:10:00,
2013-01-13 19:11:00,30.1,27.8,30.47,NE,36,0.0,-999.0,91,0.00,,,0.01,0,Wunderground v.1.15,2013-01-14 03:11:00,
2013-01-13 19:12:00,30.1,27.8,30.47,NE,36,0.0,-999.0,91,0.00,,,0.01,0,Wunderground v.1.15,2013-01-14 03:12:00,
2013-01-13 19:13:00,30.1,27.8,30.47,NE,36,0.0,-999.0,91,0.00,,,0.01,0,Wunderground v.1.15,2013-01-14 03:13:00,
2013-01-13 19:15:00,30.1,27.8,30.48,NE,36,0.0,-999.0,91,0.00,,,0.01,0,Wunderground v.1.15,2013-01-14 03:15:00,
2013-01-13 19:16:00,30.1,27.8,30.48,NE,36,0.0,-999.0,91,0.00,,,0.01,0,Wunderground v.1.15,2013-01-14 03:16:00,
2013-01-13 19:17:00,30.1,27.8,30.48,NE,36,0.0,-999.0,91,0.00,,,0.01,0,Wunderground v.1.15,2013-01-14 03:17:00,
2013-01-13 19:18:00,30.1,27.8,30.48,NE,36,0.0,-999.0,91,0.00,,,0.01,0,Wunderground v.1.15,2013-01-14 03:18:00,
2013-01-13 19:21:00,30.1,27.8,30.48,NE,36,0.0,-999.0,91,0.00,,,0.01,0,Wunderground v.1.15,2013-01-14 03:21:00,
2013-01-13 19:23:00,30.1,27.8,30.48,NE,36,0.0,-999.0,91,0.00,,,0.01,0,Wunderground v.1.15,2013-01-14 03:23:00,
2013-01-13 19:26:00,30.3,28.0,30.48,NE,36,0.0,-999.0,91,0.00,,,0.01,0,Wunderground v.1.15,2013-01-14 03:26:00,
2013-01-13 19:28:00,30.3,28.0,30.48,NE,36,0.0,-999.0,91,0.00,,,0.01,0,Wunderground v.1.15,2013-01-14 03:28:00,
2013-01-13 19:29:00,30.3,28.0,30.48,NE,36,0.0,-999.0,91,0.00,,,0.01,0,Wunderground v.1.15,2013-01-14 03:29:00,
2013-01-13 19:31:00,30.3,28.0,30.49,NE,36,0.0,-999.0,91,0.00,,,0.01,0,Wunderground v.1.15,2013-01-14 03:31:00,
2013-01-13 19:32:00,30.3,28.0,30.49,NE,36,0.0,-999.0,91,0.00,,,0.01,0,Wunderground v.1.15,2013-01-14 03:32:00,
2013-01-13 19:33:00,30.3,28.0,30.49,NE,36,0.0,-999.0,91,0.00,,,0.01,0,Wunderground v.1.15,2013-01-14 03:33:00,
2013-01-13 19:34:00,30.3,28.0,30.49,NE,36,0.0,-999.0,91,0.00,,,0.01,0,Wunderground v.1.15,2013-01-14 03:34:00,
2013-01-13 19:36:00,30.3,28.0,30.49,NE,36,0.0,-999.0,91,0.00,,,0.01,0,Wunderground v.1.15,2013-01-14 03:36:00,
2013-01-13 19:37:00,30.3,28.0,30.49,NE,36,0.0,-999.0,91,0.00,,,0.01,0,Wunderground v.1.15,2013-01-14 03:37:00,
2013-01-13 19:38:00,30.3,28.0,30.49,NE,36,0.0,-999.0,91,0.00,,,0.01,0,Wunderground v.1.15,2013-01-14 03:38:00,
2013-01-13 19:39:00,30.3,28.0,30.49,NE,36,0.0,-999.0,91,0.00,,,0.01,0,Wunderground v.1.15,2013-01-14 03:39:00,
2013-01-13 19:42:00,30.3,28.0,30.49,NE,36,0.0,-999.0,91,0.00,,,0.01,0,Wunderground v.1.15,2013-01-14 03:42:00,
2013-01-13 19:44:00,30.3,28.0,30.49,NE,36,0.0,-999.0,91,0.00,,,0.01,0,Wunderground v.1.15,2013-01-14 03:44:00,
2013-01-13 19:48:00,30.4,28.1,30.49,NE,36,0.0,-999.0,91,0.00,,,0.01,0,Wunderground v.1.15,2013-01-14 03:48:00,
2013-01-13 19:49:00,30.4,28.1,30.49,NE,36,0.0,-999.0,91,0.00,,,0.01,0,Wunderground v.1.15,2013-01-14 03:49:00,
2013-01-13 19:50:00,30.4,28.1,30.49,NE,36,0.0,-999.0,91,0.00,,,0.01,0,Wunderground v.1.15,2013-01-14 03:50:00,
2013-01-13 19:53:00,30.4,28.1,30.49,NE,36,0.0,-999.0,91,0.00,,,0.01,0,Wunderground v.1.15,2013-01-14 03:53:00,
2013-01-13 19:54:00,30.4,28.1,30.49,NE,36,0.0,-999.0,91,0.00,,,0.01,0,Wunderground v.1.15,2013-01-14 03:54:00,
2013-01-13 19:55:00,30.4,28.1,30.49,NE,36,0.0,-999.0,91,0.00,,,0.01,0,Wunderground v.1.15,2013-01-14 03:55:00,
2013-01-13 19:59:00,30.4,28.1,30.49,NE,36,0.0,-999.0,91,0.00,,,0.01,0,Wunderground v.1.15,2013-01-14 03:59:00,
2013-01-13 20:00:00,30.4,28.1,30.49,NE,36,0.0,-999.0,91,0.00,,,0.01,0,Wunderground v.1.15,2013-01-14 04:00:00,
2013-01-13 20:04:00,30.4,28.1,30.49,NNE,33,0.0,-999.0,91,0.00,,,0.01,0,Wunderground v.1.15,2013-01-14 04:04:00,
2013-01-13 20:05:00,30.4,28.1,30.49,NE,36,0.0,-999.0,91,0.00,,,0.01,0,Wunderground v.1.15,2013-01-14 04:05:00,
2013-01-13 20:09:00,30.4,28.1,30.49,NE,36,0.0,-999.0,91,0.00,,,0.01,0,Wunderground v.1.15,2013-01-14 04:09:00,
2013-01-13 20:10:00,30.4,28.1,30.49,NE,36,0.0,-999.0,91,0.00,,,0.01,0,Wunderground v.1.15,2013-01-14 04:10:00,
2013-01-13 20:14:00,30.4,28.1,30.49,NE,37,0.0,-999.0,91,0.00,,,0.01,0,Wunderground v.1.15,2013-01-14 04:14:00,
2013-01-13 20:15:00,30.4,28.1,30.49,NE,36,0.0,-999.0,91,0.00,,,0.01,0,Wunderground v.1.15,2013-01-14 04:15:00,
2013-01-13 20:20:00,30.4,28.1,30.50,NE,37,0.0,-999.0,91,0.00,,,0.01,0,Wunderground v.1.15,2013-01-14 04:20:00,
2013-01-13 20:21:00,30.4,28.1,30.50,NE,37,0.0,-999.0,91,0.00,,,0.01,0,Wunderground v.1.15,2013-01-14 04:21:00,
2013-01-13 20:25:00,30.4,28.1,30.50,NE,36,0.0,-999.0,91,0.00,,,0.01,0,Wunderground v.1.15,2013-01-14 04:25:00,
2013-01-13 20:26:00,30.4,28.1,30.50,NE,37,0.0,-999.0,91,0.00,,,0.01,0,Wunderground v.1.15,2013-01-14 04:26:00,
2013-01-13 20:30:00,30.4,28.1,30.49,NE,36,0.0,-999.0,91,0.00,,,0.01,0,Wunderground v.1.15,2013-01-14 04:30:00,
2013-01-13 20:31:00,30.4,28.1,30.49,NE,36,0.0,-999.0,91,0.00,,,0.01,0,Wunderground v.1.15,2013-01-14 04:31:00,
2013-01-13 20:35:00,30.4,28.1,30.49,NE,36,0.0,-999.0,91,0.00,,,0.01,0,Wunderground v.1.15,2013-01-14 04:35:00,
2013-01-13 20:36:00,30.4,28.1,30.49,NE,35,0.0,-999.0,91,0.00,,,0.01,0,Wunderground v.1.15,2013-01-14 04:36:00,
2013-01-13 20:41:00,30.4,28.1,30.49,NE,36,0.0,-999.0,91,0.00,,,0.01,0,Wunderground v.1.15,2013-01-14 04:41:00,
2013-01-13 20:46:00,30.3,28.0,30.48,NE,36,0.0,-999.0,91,0.00,,,0.01,0,Wunderground v.1.15,2013-01-14 04:46:00,
2013-01-13 20:47:00,30.3,28.0,30.48,NE,36,0.0,-999.0,91,0.00,,,0.01,0,Wunderground v.1.15,2013-01-14 04:47:00,
2013-01-13 20:51:00,30.3,28.0,30.48,NE,37,0.0,-999.0,91,0.00,,,0.01,0,Wunderground v.1.15,2013-01-14 04:51:00,
2013-01-13 20:52:00,30.3,28.0,30.48,NE,36,0.0,-999.0,91,0.00,,,0.01,0,Wunderground v.1.15,2013-01-14 04:52:00,
2013-01-13 20:56:00,30.3,28.0,30.48,NE,36,0.0,-999.0,91,0.00,,,0.01,0,Wunderground v.1.15,2013-01-14 04:56:00,
2013-01-13 20:57:00,30.3,28.0,30.48,NE,37,0.0,-999.0,91,0.00,,,0.01,0,Wunderground v.1.15,2013-01-14 04:57:00,
2013-01-13 21:00:00,30.3,28.0,30.50,NE,36,0.0,-999.0,91,0.00,,,0.01,0,Wunderground v.1.15,2013-01-14 05:00:00,
2013-01-13 21:01:00,30.3,28.0,30.50,NE,37,0.0,-999.0,91,0.00,,,0.01,0,Wunderground v.1.15,2013-01-14 05:01:00,
2013-01-13 21:03:00,30.3,28.0,30.50,NE,35,0.0,-999.0,91,0.00,,,0.01,0,Wunderground v.1.15,2013-01-14 05:03:00,
2013-01-13 21:06:00,30.3,28.0,30.50,NE,36,0.0,-999.0,91,0.00,,,0.01,0,Wunderground v.1.15,2013-01-14 05:06:00,
2013-01-13 21:08:00,30.3,28.0,30.50,NE,37,0.0,-999.0,91,0.00,,,0.01,0,Wunderground v.1.15,2013-01-14 05:08:00,
2013-01-13 21:11:00,30.3,28.0,30.50,NE,36,0.0,-999.0,91,0.00,,,0.01,0,Wunderground v.1.15,2013-01-14 05:11:00,
2013-01-13 21:13:00,30.3,28.0,30.50,NE,36,0.0,-999.0,91,0.00,,,0.01,0,Wunderground v.1.15,2013-01-14 05:13:00,
2013-01-13 21:16:00,30.3,28.0,30.50,NE,36,0.0,-999.0,91,0.00,,,0.01,0,Wunderground v.1.15,2013-01-14 05:16:00,
2013-01-13 21:18:00,30.3,28.0,30.50,NE,36,0.0,-999.0,91,0.00,,,0.01,0,Wunderground v.1.15,2013-01-14 05:18:00,
2013-01-13 21:21:00,30.3,28.0,30.50,NE,36,0.0,-999.0,91,0.00,,,0.01,0,Wunderground v.1.15,2013-01-14 05:21:00,
2013-01-13 21:23:00,30.3,28.0,30.50,NE,37,0.0,-999.0,91,0.00,,,0.01,0,Wunderground v.1.15,2013-01-14 05:23:00,
2013-01-13 21:26:00,30.3,28.0,30.50,NE,36,0.0,-999.0,91,0.00,,,0.01,0,Wunderground v.1.15,2013-01-14 05:26:00,
2013-01-13 21:27:00,30.3,28.0,30.50,NE,36,0.0,-999.0,91,0.00,,,0.01,0,Wunderground v.1.15,2013-01-14 05:27:00,
2013-01-13 21:28:00,30.3,28.0,30.50,NE,36,0.0,-999.0,91,0.00,,,0.01,0,Wunderground v.1.15,2013-01-14 05:28:00,
2013-01-13 21:31:00,30.3,28.0,30.50,NE,35,0.0,-999.0,91,0.00,,,0.01,0,Wunderground v.1.15,2013-01-14 05:31:00,
2013-01-13 21:32:00,30.3,28.0,30.50,NE,37,0.0,-999.0,91,0.00,,,0.01,0,Wunderground v.1.15,2013-01-14 05:32:00,
2013-01-13 21:34:00,30.3,28.0,30.50,NE,37,0.0,-999.0,91,0.00,,,0.01,0,Wunderground v.1.15,2013-01-14 05:34:00,
2013-01-13 21:36:00,30.3,28.0,30.50,NE,36,0.0,-999.0,91,0.00,,,0.01,0,Wunderground v.1.15,2013-01-14 05:36:00,
2013-01-13 21:38:00,30.3,28.0,30.50,NE,36,0.0,-999.0,91,0.00,,,0.01,0,Wunderground v.1.15,2013-01-14 05:38:00,
2013-01-13 21:39:00,30.3,28.0,30.50,NE,36,0.0,-999.0,91,0.00,,,0.01,0,Wunderground v.1.15,2013-01-14 05:39:00,
2013-01-13 21:41:00,30.3,28.0,30.50,NE,36,0.0,-999.0,91,0.00,,,0.01,0,Wunderground v.1.15,2013-01-14 05:41:00,
2013-01-13 21:43:00,30.3,28.0,30.50,NE,37,0.0,-999.0,91,0.00,,,0.01,0,Wunderground v.1.15,2013-01-14 05:43:00,
2013-01-13 21:44:00,30.3,28.0,30.50,NE,36,0.0,-999.0,91,0.00,,,0.01,0,Wunderground v.1.15,2013-01-14 05:44:00,
2013-01-13 21:46:00,30.3,28.0,30.49,NE,36,0.0,-999.0,91,0.00,,,0.01,0,Wunderground v.1.15,2013-01-14 05:46:00,
2013-01-13 21:48:00,30.3,28.0,30.49,NE,37,0.0,-999.0,91,0.00,,,0.01,0,Wunderground v.1.15,2013-01-14 05:48:00,
2013-01-13 21:49:00,30.3,28.0,30.49,NE,37,0.0,-999.0,91,0.00,,,0.01,0,Wunderground v.1.15,2013-01-14 05:49:00,
2013-01-13 21:51:00,30.3,28.0,30.49,NE,36,0.0,-999.0,91,0.00,,,0.01,0,Wunderground v.1.15,2013-01-14 05:51:00,
2013-01-13 21:53:00,30.3,28.0,30.49,NE,36,0.0,-999.0,91,0.00,,,0.01,0,Wunderground v.1.15,2013-01-14 05:53:00,
2013-01-13 21:54:00,30.3,28.0,30.49,NE,36,0.0,-999.0,91,0.00,,,0.01,0,Wunderground v.1.15,2013-01-14 05:54:00,
2013-01-13 21:56:00,30.3,28.0,30.49,NE,36,0.0,-999.0,91,0.00,,,0.01,0,Wunderground v.1.15,2013-01-14 05:56:00,
2013-01-13 21:59:00,30.3,28.0,30.49,NE,36,0.0,-999.0,91,0.00,,,0.01,0,Wunderground v.1.15,2013-01-14 05:59:00,
2013-01-13 22:02:00,30.3,28.0,30.50,NE,37,0.0,-999.0,91,0.00,,,0.01,0,Wunderground v.1.15,2013-01-14 06:02:00,
2013-01-13 22:04:00,30.3,28.0,30.50,NE,36,0.0,-999.0,91,0.00,,,0.01,0,Wunderground v.1.15,2013-01-14 06:04:00,
2013-01-13 22:05:00,30.3,28.0,30.50,NE,37,0.0,-999.0,91,0.00,,,0.01,0,Wunderground v.1.15,2013-01-14 06:05:00,
2013-01-13 22:07:00,30.3,28.0,30.50,NE,36,0.0,-999.0,91,0.00,,,0.01,0,Wunderground v.1.15,2013-01-14 06:07:00,
2013-01-13 22:08:00,30.3,28.0,30.50,NE,36,0.0,-999.0,91,0.00,,,0.01,0,Wunderground v.1.15,2013-01-14 06:08:00,
2013-01-13 22:09:00,30.3,28.0,30.50,NE,36,0.0,-999.0,91,0.00,,,0.01,0,Wunderground v.1.15,2013-01-14 06:09:00,
2013-01-13 22:11:00,30.3,28.0,30.50,NE,36,0.0,-999.0,91,0.00,,,0.01,0,Wunderground v.1.15,2013-01-14 06:11:00,
2013-01-13 22:13:00,30.3,28.0,30.50,NE,37,0.0,-999.0,91,0.00,,,0.01,0,Wunderground v.1.15,2013-01-14 06:13:00,
2013-01-13 22:14:00,30.3,28.0,30.50,NE,36,0.0,-999.0,91,0.00,,,0.01,0,Wunderground v.1.15,2013-01-14 06:14:00,
2013-01-13 22:16:00,30.3,28.0,30.51,NE,36,0.0,-999.0,91,0.00,,,0.01,0,Wunderground v.1.15,2013-01-14 06:16:00,
2013-01-13 22:18:00,30.4,28.1,30.51,NNE,29,0.0,-999.0,91,0.00,,,0.01,0,Wunderground v.1.15,2013-01-14 06:18:00,
2013-01-13 22:20:00,30.4,28.1,30.51,NE,36,0.0,-999.0,91,0.00,,,0.01,0,Wunderground v.1.15,2013-01-14 06:20:00,
2013-01-13 22:21:00,30.4,28.1,30.51,NE,36,0.0,-999.0,91,0.00,,,0.01,0,Wunderground v.1.15,2013-01-14 06:21:00,
2013-01-13 22:23:00,30.4,28.1,30.51,NE,36,0.0,-999.0,91,0.00,,,0.01,0,Wunderground v.1.15,2013-01-14 06:23:00,
2013-01-13 22:25:00,30.4,28.1,30.51,NE,36,0.0,-999.0,91,0.00,,,0.01,0,Wunderground v.1.15,2013-01-14 06:25:00,
2013-01-13 22:27:00,30.4,28.1,30.51,NE,36,0.0,-999.0,91,0.00,,,0.01,0,Wunderground v.1.15,2013-01-14 06:27:00,
2013-01-13 22:28:00,30.4,28.1,30.51,NE,37,0.0,-999.0,91,0.00,,,0.01,0,Wunderground v.1.15,2013-01-14 06:28:00,
2013-01-13 22:30:00,30.4,28.1,30.51,NE,37,0.0,-999.0,91,0.00,,,0.01,0,Wunderground v.1.15,2013-01-14 06:30:00,
2013-01-13 22:32:00,30.4,28.1,30.50,NE,36,0.0,-999.0,91,0.00,,,0.01,0,Wunderground v.1.15,2013-01-14 06:32:00,
2013-01-13 22:33:00,30.4,28.1,30.50,NE,36,0.0,-999.0,91,0.00,,,0.01,0,Wunderground v.1.15,2013-01-14 06:33:00,
2013-01-13 22:34:00,30.4,28.1,30.50,NE,36,0.0,-999.0,91,0.00,,,0.01,0,Wunderground v.1.15,2013-01-14 06:34:00,
2013-01-13 22:35:00,30.4,28.1,30.50,NE,36,0.0,-999.0,91,0.00,,,0.01,0,Wunderground v.1.15,2013-01-14 06:35:00,
2013-01-13 22:37:00,30.4,28.1,30.50,NE,37,0.0,-999.0,91,0.00,,,0.01,0,Wunderground v.1.15,2013-01-14 06:37:00,
2013-01-13 22:38:00,30.4,28.1,30.50,NE,36,0.0,-999.0,91,0.00,,,0.01,0,Wunderground v.1.15,2013-01-14 06:38:00,
2013-01-13 22:39:00,30.4,28.1,30.50,NE,36,0.0,-999.0,91,0.00,,,0.01,0,Wunderground v.1.15,2013-01-14 06:39:00,
2013-01-13 22:40:00,30.4,28.1,30.50,NE,37,0.0,-999.0,91,0.00,,,0.01,0,Wunderground v.1.15,2013-01-14 06:40:00,
2013-01-13 22:42:00,30.4,28.1,30.50,NE,36,0.0,-999.0,91,0.00,,,0.01,0,Wunderground v.1.15,2013-01-14 06:42:00,
2013-01-13 22:44:00,30.4,28.1,30.50,NE,37,0.0,-999.0,91,0.00,,,0.01,0,Wunderground v.1.15,2013-01-14 06:44:00,
2013-01-13 22:46:00,30.4,28.1,30.50,NE,36,0.0,-999.0,91,0.00,,,0.01,0,Wunderground v.1.15,2013-01-14 06:46:00,
2013-01-13 22:47:00,30.4,28.1,30.50,NE,36,0.0,-999.0,91,0.00,,,0.01,0,Wunderground v.1.15,2013-01-14 06:47:00,
2013-01-13 22:49:00,30.4,28.1,30.50,NE,36,0.0,-999.0,91,0.00,,,0.01,0,Wunderground v.1.15,2013-01-14 06:49:00,
2013-01-13 22:51:00,30.4,28.1,30.50,NE,36,0.0,-999.0,91,0.00,,,0.01,0,Wunderground v.1.15,2013-01-14 06:51:00,
2013-01-13 22:53:00,30.4,28.1,30.50,NE,36,0.0,-999.0,91,0.00,,,0.01,0,Wunderground v.1.15,2013-01-14 06:53:00,
2013-01-13 22:54:00,30.4,28.1,30.50,NE,36,0.0,-999.0,91,0.00,,,0.01,0,Wunderground v.1.15,2013-01-14 06:54:00,
2013-01-13 22:55:00,30.4,28.1,30.50,NE,37,0.0,-999.0,91,0.00,,,0.01,0,Wunderground v.1.15,2013-01-14 06:55:00,
2013-01-13 22:56:00,30.4,28.1,30.50,NE,36,0.0,-999.0,91,0.00,,,0.01,0,Wunderground v.1.15,2013-01-14 06:56:00,
2013-01-13 22:58:00,30.4,28.1,30.50,NE,36,0.0,-999.0,91,0.00,,,0.01,0,Wunderground v.1.15,2013-01-14 06:58:00,
2013-01-13 22:59:00,30.4,28.1,30.50,NE,36,0.0,-999.0,91,0.00,,,0.01,0,Wunderground v.1.15,2013-01-14 06:59:00,
2013-01-13 23:00:00,30.4,28.1,30.50,NE,36,0.0,-999.0,91,0.00,,,0.01,0,Wunderground v.1.15,2013-01-14 07:00:00,
2013-01-13 23:01:00,30.4,28.1,30.50,NE,36,0.0,-999.0,91,0.00,,,0.01,0,Wunderground v.1.15,2013-01-14 07:01:00,
2013-01-13 23:03:00,30.4,28.1,30.50,NE,36,0.0,-999.0,91,0.00,,,0.01,0,Wunderground v.1.15,2013-01-14 07:03:00,
2013-01-13 23:04:00,30.4,28.1,30.50,NE,36,0.0,-999.0,91,0.00,,,0.01,0,Wunderground v.1.15,2013-01-14 07:04:00,
2013-01-13 23:05:00,30.4,28.1,30.50,NE,36,0.0,-999.0,91,0.00,,,0.01,0,Wunderground v.1.15,2013-01-14 07:05:00,
2013-01-13 23:07:00,30.4,28.1,30.50,NE,36,0.0,-999.0,91,0.00,,,0.01,0,Wunderground v.1.15,2013-01-14 07:07:00,
2013-01-13 23:08:00,30.4,28.1,30.50,NE,36,0.0,-999.0,91,0.00,,,0.01,0,Wunderground v.1.15,2013-01-14 07:08:00,
2013-01-13 23:10:00,30.4,28.1,30.50,NE,36,0.0,-999.0,91,0.00,,,0.01,0,Wunderground v.1.15,2013-01-14 07:10:00,
2013-01-13 23:11:00,30.4,28.1,30.50,NE,36,0.0,-999.0,91,0.00,,,0.01,0,Wunderground v.1.15,2013-01-14 07:11:00,
2013-01-13 23:12:00,30.4,28.1,30.50,NE,37,0.0,-999.0,91,0.00,,,0.01,0,Wunderground v.1.15,2013-01-14 07:12:00,
2013-01-13 23:13:00,30.4,28.1,30.50,NE,36,0.0,-999.0,91,0.00,,,0.01,0,Wunderground v.1.15,2013-01-14 07:13:00,
2013-01-13 23:15:00,30.4,28.1,30.50,NE,37,0.0,-999.0,91,0.00,,,0.01,0,Wunderground v.1.15,2013-01-14 07:15:00,
2013-01-13 23:16:00,30.4,28.1,30.50,NE,36,0.0,-999.0,91,0.00,,,0.01,0,Wunderground v.1.15,2013-01-14 07:16:00,
2013-01-13 23:17:00,30.6,28.3,30.50,NE,36,0.0,-999.0,91,0.00,,,0.01,0,Wunderground v.1.15,2013-01-14 07:17:00,
2013-01-13 23:19:00,30.4,28.1,30.50,NE,36,0.0,-999.0,91,0.00,,,0.01,0,Wunderground v.1.15,2013-01-14 07:19:00,
2013-01-13 23:21:00,30.4,28.1,30.50,NE,36,0.0,-999.0,91,0.00,,,0.01,0,Wunderground v.1.15,2013-01-14 07:21:00,
2013-01-13 23:22:00,30.4,28.1,30.50,NE,36,0.0,-999.0,91,0.00,,,0.01,0,Wunderground v.1.15,2013-01-14 07:22:00,
2013-01-13 23:24:00,30.4,28.1,30.50,NE,36,0.0,-999.0,91,0.00,,,0.01,0,Wunderground v.1.15,2013-01-14 07:24:00,
2013-01-13 23:26:00,30.4,28.1,30.50,NE,36,0.0,-999.0,91,0.00,,,0.01,0,Wunderground v.1.15,2013-01-14 07:26:00,
2013-01-13 23:27:00,30.4,28.1,30.50,NE,36,0.0,-999.0,91,0.00,,,0.01,0,Wunderground v.1.15,2013-01-14 07:27:00,
2013-01-13 23:28:00,30.4,28.1,30.50,NE,36,0.0,-999.0,91,0.00,,,0.01,0,Wunderground v.1.15,2013-01-14 07:28:00,
2013-01-13 23:29:00,30.4,28.1,30.50,NE,36,0.0,-999.0,91,0.00,,,0.01,0,Wunderground v.1.15,2013-01-14 07:29:00,
2013-01-13 23:32:00,30.4,28.1,30.49,NE,36,0.0,-999.0,91,0.00,,,0.01,0,Wunderground v.1.15,2013-01-14 07:32:00,
2013-01-13 23:33:00,30.4,28.1,30.49,NE,36,0.0,-999.0,91,0.00,,,0.01,0,Wunderground v.1.15,2013-01-14 07:33:00,
2013-01-13 23:34:00,30.4,28.1,30.49,NE,37,0.0,-999.0,91,0.00,,,0.01,0,Wunderground v.1.15,2013-01-14 07:34:00,
2013-01-13 23:37:00,30.4,28.1,30.49,NE,36,0.0,-999.0,91,0.00,,,0.01,0,Wunderground v.1.15,2013-01-14 07:37:00,
2013-01-13 23:38:00,30.4,28.1,30.49,NE,36,0.0,-999.0,91,0.00,,,0.01,0,Wunderground v.1.15,2013-01-14 07:38:00,
2013-01-13 23:39:00,30.4,28.1,30.49,NE,36,0.0,-999.0,91,0.00,,,0.01,0,Wunderground v.1.15,2013-01-14 07:39:00,
2013-01-13 23:42:00,30.4,28.1,30.49,NE,36,0.0,-999.0,91,0.00,,,0.01,0,Wunderground v.1.15,2013-01-14 07:42:00,
2013-01-13 23:43:00,30.4,28.1,30.49,NE,36,0.0,-999.0,91,0.00,,,0.01,0,Wunderground v.1.15,2013-01-14 07:43:00,
2013-01-13 23:45:00,30.4,28.1,30.49,NE,36,0.0,-999.0,91,0.00,,,0.01,0,Wunderground v.1.15,2013-01-14 07:45:00,
2013-01-13 23:47:00,30.4,28.1,30.49,NE,36,0.0,-999.0,91,0.00,,,0.01,0,Wunderground v.1.15,2013-01-14 07:47:00,
2013-01-13 23:48:00,30.4,28.1,30.49,NE,36,0.0,-999.0,91,0.00,,,0.01,0,Wunderground v.1.15,2013-01-14 07:48:00,
2013-01-13 23:49:00,30.4,28.1,30.49,NE,36,0.0,-999.0,91,0.00,,,0.01,0,Wunderground v.1.15,2013-01-14 07:49:00,
2013-01-13 23:50:00,30.4,28.1,30.49,NE,36,0.0,-999.0,91,0.00,,,0.01,0,Wunderground v.1.15,2013-01-14 07:50:00,
2013-01-13 23:53:00,30.4,28.1,30.49,NE,36,0.0,-999.0,91,0.00,,,0.01,0,Wunderground v.1.15,2013-01-14 07:53:00,
2013-01-13 23:54:00,30.4,28.1,30.49,NE,37,0.0,-999.0,91,0.00,,,0.01,0,Wunderground v.1.15,2013-01-14 07:54:00,
2013-01-13 23:56:00,30.4,28.1,30.49,NE,36,0.0,-999.0,91,0.00,,,0.01,0,Wunderground v.1.15,2013-01-14 07:56:00,
2013-01-13 23:58:00,30.4,28.1,30.49,NE,36,0.0,-999.0,91,0.00,,,0.01,0,Wunderground v.1.15,2013-01-14 07:58:00,
2013-01-13 23:59:00,30.4,28.1,30.49,NE,36,0.0,-999.0,91,0.00,,,0.01,0,Wunderground v.1.15,2013-01-14 07:59:00,